Return to Metar
SPECI CYNL 300421Z AUTO 33004KT 9SM OVC030 M08/M11 A3003 RMK AO1 SLP214
METAR CYNL 300400Z AUTO 33005KT 9SM FEW011 SCT015 OVC027 M08/M11 A3003 RMK AO1 SLP213
SPECI CYNL 300354Z AUTO 00005KT 9SM SCT014 OVC025 M08/M11 A3002 RMK AO1 SLP213
SPECI CYNL 300351Z AUTO 34003KT 9SM BKN014 OVC024 M08/M11 A3002 RMK AO1 SLP213
SPECI CYNL 300337Z AUTO 35006KT 7SM SCT012 BKN015 OVC035 M07/M10 A3002 RMK AO1 SLP212
SPECI CYNL 300334Z AUTO 33004KT 9SM BKN012 OVC035 M07/M10 A3002 RMK AO1 SLP211
SPECI CYNL 300333Z AUTO 33004KT 9SM SCT012 BKN018 OVC035 M07/M10 A3002 RMK AO1 SLP211
METAR CYNL 300300Z AUTO 30005KT 9SM OVC034 M07/M10 A3001 RMK AO1 SLP207
METAR CYNL 300200Z AUTO 30005KT 9SM OVC033 M07/M11 A3000 RMK AO1 SLP204
METAR CYNL 300100Z AUTO 30004KT 9SM OVC034 M07/M10 A2999 RMK AO1 SLP201
METAR CYNL 300000Z AUTO 31005KT 9SM FEW022 BKN033 M07/M10 A2997 RMK AO1 SLP195
SPECI CYNL 292327Z AUTO 29004KT 9SM SCT020 OVC036 M07/M10 A2996 RMK AO1 SLP193
SPECI CYNL 292325Z AUTO 29005KT 9SM SCT019 BKN029 OVC036 M07/M10 A2997 RMK AO1 SLP193
METAR CYNL 292300Z AUTO 30007KT 9SM BKN018 OVC022 M07/M10 A2996 RMK AO1 SLP191
METAR CYNL 292200Z AUTO 30011KT 9SM OVC016 M07/M10 A2995 RMK AO1 PRESRR SLP187
SPECI CYNL 292147Z AUTO 30009G16KT 9SM BKN015 OVC018 M07/M10 A2994 RMK AO1 SLP186
METAR CYNL 292100Z AUTO 30008KT 9SM OVC013 M06/M10 A2992 RMK AO1 SLP178
SPECI CYNL 292033Z AUTO 30005G16KT 9SM BKN012 OVC064 M06/M10 A2992 RMK AO1 SLP177
METAR CYNL 292000Z AUTO 30008KT 9SM SCT012 BKN064 M07/M10 A2991 RMK AO1 SLP175
SPECI CYNL 291940Z AUTO 31008G15KT 7SM SCT011 BKN062 M07/M10 A2990 RMK AO1 SLP173
SPECI CYNL 291938Z AUTO 31007G15KT 9SM BKN011 BKN062 M07/M10 A2990 RMK AO1 SLP172
SPECI CYNL 291935Z AUTO 31010G15KT 9SM SCT011 BKN062 M07/M10 A2990 RMK AO1 SLP172
SPECI CYNL 291933Z AUTO 30008KT 9SM BKN011 BKN062 M07/M10 A2990 RMK AO1 SLP172
METAR CYNL 291900Z AUTO 32009G16KT 9SM SCT060 M07/M10 A2989 RMK AO1 SLP170
METAR CYNL 291800Z AUTO 34007KT 9SM FEW010 OVC056 M07/M10 A2988 RMK AO1 PRESRR SLP165
SPECI CYNL 291753Z AUTO 32010KT 9SM SCT010 OVC056 M07/M10 A2987 RMK AO1 SLP164
SPECI CYNL 291748Z AUTO 32008KT 9SM BKN010 OVC056 M07/M10 A2987 RMK AO1 SLP163
SPECI CYNL 291735Z AUTO 32009KT 9SM SCT010 OVC054 M08/M10 A2987 RMK AO1 SLP163
SPECI CYNL 291703Z AUTO 34007KT 9SM BKN010 M07/M10 A2986 RMK AO1 SLP158
METAR CYNL 291700Z AUTO 34006KT 9SM SCT009 BKN050 M07/M10 A2986 RMK AO1 SLP158
SPECI CYNL 291622Z AUTO 33004KT 9SM SCT009 BKN052 OVC062 M08/M10 A2985 RMK AO1 PRESRR SLP155
SPECI CYNL 291621Z AUTO 33004KT 9SM SCT009 BKN023 OVC062 M08/M10 A2985 RMK AO1 PRESRR SLP155
SPECI CYNL 291616Z AUTO 33005KT 9SM SCT009 BKN012 OVC062 M08/M10 A2985 RMK AO1 PRESRR SLP155
SPECI CYNL 291612Z AUTO 33004KT 9SM SCT008 BKN023 OVC062 M08/M10 A2985 RMK AO1 PRESRR SLP154
SPECI CYNL 291608Z AUTO 34006KT 9SM SCT009 OVC062 M08/M10 A2984 RMK AO1 PRESRR SLP153
SPECI CYNL 291605Z AUTO 34003KT 9SM SCT009 BKN023 OVC062 M08/M10 A2984 RMK AO1 PRESRR SLP153
SPECI CYNL 291604Z AUTO 34005KT 9SM SCT009 BKN012 OVC062 M08/M10 A2984 RMK AO1 PRESRR SLP153
SPECI CYNL 291602Z AUTO 34005KT 9SM SCT008 BKN023 OVC062 M08/M10 A2984 RMK AO1 PRESRR SLP152
METAR CYNL 291600Z AUTO 34005KT 9SM SCT009 BKN012 OVC062 M08/M10 A2984 RMK AO1 PRESRR SLP152
SPECI CYNL 291557Z AUTO 34005KT 9SM BKN008 BKN023 OVC062 M08/M10 A2984 RMK AO1 SLP152
SPECI CYNL 291552Z AUTO 34007KT 9SM SCT008 BKN010 OVC012 M08/M10 A2984 RMK AO1 SLP152
SPECI CYNL 291542Z AUTO 33006KT 9SM BKN009 OVC012 M08/M10 A2984 RMK AO1 SLP152
SPECI CYNL 291521Z AUTO 34007KT 9SM BKN012 OVC017 M08/M10 A2983 RMK AO1 SLP148
SPECI CYNL 291519Z AUTO 34009KT 9SM SCT013 OVC017 M08/M10 A2983 RMK AO1 SLP148
SPECI CYNL 291518Z AUTO 34009KT 9SM BKN013 OVC018 M08/M10 A2983 RMK AO1 SLP148
METAR CYNL 291500Z AUTO 34008KT 9SM BKN019 OVC023 M08/M09 A2981 RMK AO1 SLP143
SPECI CYNL 291430Z AUTO 34006KT 9SM SCT011 BKN015 OVC022 M07/M09 A2981 RMK AO1 SLP141
SPECI CYNL 291428Z AUTO 34006KT 9SM BKN011 OVC023 M07/M09 A2981 RMK AO1 SLP141
SPECI CYNL 291427Z AUTO 34006KT 9SM SCT011 BKN015 OVC023 M07/M09 A2981 RMK AO1 SLP141
SPECI CYNL 291406Z AUTO 33003KT 9SM OVC010 M08/M09 A2980 RMK AO1 SLP140
SPECI CYNL 291405Z AUTO 33003KT 9SM BKN009 OVC011 M08/M09 A2980 RMK AO1 SLP140
SPECI CYNL 291402Z AUTO 33003KT 9SM SCT009 OVC011 M08/M09 A2980 RMK AO1 SLP140
METAR CYNL 291400Z AUTO 33003KT 9SM BKN009 OVC011 M08/M09 A2980 RMK AO1 SLP140
METAR CYNL 291300Z AUTO 00000KT 9SM OVC007 M08/M10 A2980 RMK AO1 SLP139
METAR CYNL 291200Z AUTO 00000KT 9SM OVC009 M08/M10 A2980 RMK AO1 SLP142
SPECI CYNL 291155Z AUTO 00000KT 9SM OVC009 M08/M10 A2980 RMK AO1 PRESFR SLP142
SPECI CYNL 291112Z AUTO 00000KT 9SM OVC024 M09/M10 A2981 RMK AO1 PRESFR SLP145
METAR CYNL 291100Z AUTO 00000KT 9SM OVC027 M09/M11 A2981 RMK AO1 PRESFR SLP145
SPECI CYNL 291043Z AUTO 00000KT 9SM OVC029 M09/M11 A2982 RMK AO1 SLP146
SPECI CYNL 291023Z AUTO 00000KT 9SM FEW020 SCT025 OVC031 M09/M11 A2982 RMK AO1 SLP149
SPECI CYNL 291016Z AUTO 00000KT 7SM FEW011 SCT020 BKN025 M09/M11 A2983 RMK AO1 SLP150
SPECI CYNL 291015Z AUTO 00000KT 6SM FEW012 BKN021 OVC032 M09/M11 A2983 RMK AO1 SLP150
SPECI CYNL 291010Z AUTO 00000KT 6SM FEW012 SCT020 BKN025 M09/M11 A2983 RMK AO1 SLP151
SPECI CYNL 291003Z AUTO 00000KT 3SM BKN020 OVC034 M09/M11 A2983 RMK AO1 SLP152
SPECI CYNL 291002Z AUTO 00000KT 2 1/2SM VV020 M09/M11 A2983 RMK AO1 SLP152
METAR CYNL 291000Z AUTO 00000KT 3SM VV020 M09/M11 A2984 RMK AO1 SLP153
SPECI CYNL 290951Z AUTO 00000KT 2 1/2SM VV016 M09/M11 A2984 RMK AO1 PRESFR SLP154
SPECI CYNL 290940Z AUTO 00000KT 4SM SCT019 BKN023 OVC046 M09/M11 A2984 RMK AO1 PRESFR SLP155
SPECI CYNL 290934Z AUTO 00000KT 5SM FEW008 SCT023 OVC046 M09/M11 A2984 RMK AO1 PRESFR SLP155
SPECI CYNL 290932Z AUTO 00000KT 9SM VV023 M09/M11 A2984 RMK AO1 PRESFR SLP155
SPECI CYNL 290905Z AUTO 13002KT 3SM FEW008 SCT018 BKN039 M09/M11 A2985 RMK AO1 PRESFR SLP160
SPECI CYNL 290903Z AUTO 14003KT 4SM VV022 M09/M11 A2985 RMK AO1 PRESFR SLP160
SPECI CYNL 290902Z AUTO 14003KT 6SM VV025 M09/M11 A2985 RMK AO1 PRESFR SLP160
METAR CYNL 290900Z AUTO 14003KT 9SM VV024 M09/M11 A2986 RMK AO1 PRESFR SLP160
SPECI CYNL 290859Z AUTO 14002KT 9SM VV024 M09/M11 A2986 RMK AO1 PRESFR SLP160
SPECI CYNL 290854Z AUTO 15003KT 9SM FEW008 SCT017 BKN042 M09/M11 A2986 RMK AO1 SLP161
SPECI CYNL 290839Z AUTO 15003KT 9SM FEW015 SCT031 BKN052 M09/M11 A2986 RMK AO1 SLP163
SPECI CYNL 290835Z AUTO 15003KT 8SM VV025 M09/M11 A2987 RMK AO1 SLP164
SPECI CYNL 290833Z AUTO 15004KT 7SM VV022 M09/M11 A2987 RMK AO1 SLP164
SPECI CYNL 290831Z AUTO 15004KT 9SM SCT015 BKN027 M09/M11 A2987 RMK AO1 SLP164
SPECI CYNL 290819Z AUTO 14004KT 9SM FEW013 SCT018 BKN056 M09/M11 A2987 RMK AO1 SLP165
SPECI CYNL 290818Z AUTO 14003KT 9SM FEW014 SCT018 BKN027 M09/M11 A2987 RMK AO1 SLP165
SPECI CYNL 290812Z AUTO 15004KT 9SM SCT013 BKN017 BKN021 M09/M11 A2987 RMK AO1 SLP166
SPECI CYNL 290809Z AUTO 15003KT 7SM VV014 M09/M11 A2987 RMK AO1 SLP166
SPECI CYNL 290808Z AUTO 16003KT 4SM VV016 M09/M11 A2987 RMK AO1 SLP166
SPECI CYNL 290807Z AUTO 15003KT 2 1/2SM VV015 M09/M11 A2987 RMK AO1 SLP166
SPECI CYNL 290805Z AUTO 16003KT 2 1/2SM VV014 M09/M11 A2987 RMK AO1 SLP167
METAR CYNL 290800Z AUTO 15004KT 9SM FEW009 OVC017 M09/M11 A2988 RMK AO1 SLP167
METAR CYNL 290700Z AUTO 16004KT 9SM OVC017 M09/M11 A2990 RMK AO1 PRESFR SLP176
SPECI CYNL 290650Z AUTO 16004KT 9SM BKN015 OVC018 M09/M11 A2990 RMK AO1 SLP177
METAR CYNL 290600Z AUTO 16006KT 9SM OVC011 M10/M12 A2992 RMK AO1 SLP185
SPECI CYNL 290519Z AUTO 17004KT 9SM FEW007 OVC012 M10/M12 A2994 RMK AO1 PRESFR SLP191
METAR CYNL 290500Z AUTO 17004KT 9SM OVC013 M10/M12 A2994 RMK AO1 PRESFR SLP192
SPECI CYNL 290422Z AUTO 19005KT 9SM OVC014 M10/M12 A2995 RMK AO1 SLP199
METAR CYNL 290400Z AUTO 19005KT 9SM OVC016 M10/M12 A2996 RMK AO1 SLP200
METAR CYNL 290300Z AUTO 19003KT 9SM OVC020 M10/M13 A2998 RMK AO1 SLP208
METAR CYNL 290200Z AUTO 19006KT 9SM OVC023 M10/M13 A3000 RMK AO1 SLP216
METAR CYNL 290100Z AUTO 16004KT 9SM OVC019 M11/M14 A3001 RMK AO1 SLP223
METAR CYNL 290000Z AUTO 15003KT 9SM OVC017 M11/M14 A3002 RMK AO1 SLP228
METAR CYNL 282300Z AUTO 20003KT 8SM OVC015 M10/M14 A3003 RMK AO1 SLP231
SPECI CYNL 282251Z AUTO 23004KT 9SM OVC014 M10/M14 A3003 RMK AO1 SLP229
METAR CYNL 282200Z AUTO 22003KT 9SM OVC017 M11/M15 A3004 RMK AO1 SLP233
METAR CYNL 282100Z AUTO 21003KT 9SM SCT015 OVC019 M10/M15 A3005 RMK AO1 SLP234
SPECI CYNL 282045Z AUTO 23003KT 9SM OVC015 M11/M15 A3006 RMK AO1 SLP237
SPECI CYNL 282012Z AUTO 28004KT 9SM OVC014 M11/M16 A3006 RMK AO1 SLP239
METAR CYNL 282000Z AUTO 23002KT 9SM OVC015 M12/M16 A3007 RMK AO1 SLP240
SPECI CYNL 281917Z AUTO 24005KT 210V270 9SM OVC015 M11/M15 A3007 RMK AO1 SLP240
METAR CYNL 281900Z AUTO 26005KT 9SM OVC014 M12/M16 A3008 RMK AO1 SLP242
METAR CYNL 281800Z AUTO 23004KT 9SM OVC011 M13/M16 A3008 RMK AO1 SLP245
SPECI CYNL 281739Z AUTO 25004KT 9SM OVC010 M13/M16 A3008 RMK AO1 SLP243
METAR CYNL 281700Z AUTO 27003KT 9SM OVC009 M13/M16 A3008 RMK AO1 SLP243
METAR CYNL 281600Z AUTO 00000KT 9SM OVC009 M14/M17 A3007 RMK AO1 SLP241
SPECI CYNL 281548Z AUTO 31003KT 9SM OVC009 M14/M17 A3007 RMK AO1 SLP242
METAR CYNL 281500Z AUTO 35003KT 9SM OVC011 M15/M18 A3007 RMK AO1 SLP240
METAR CYNL 281400Z AUTO 33003KT 9SM OVC014 M16/M19 A3006 RMK AO1 SLP238
SPECI CYNL 281347Z AUTO 31003KT 9SM OVC014 M16/M19 A3006 RMK AO1 SLP238
METAR CYNL 281300Z AUTO 33003KT 9SM OVC017 M17/M20 A3005 RMK AO1 SLP236
METAR CYNL 281200Z AUTO 33005KT 9SM BKN023 M18/M21 A3003 RMK AO1 PRESRR SLP230
SPECI CYNL 281113Z AUTO 00002KT 9SM SCT023 M17/M19 A3001 RMK AO1 SLP221
METAR CYNL 281100Z AUTO 35002KT 9SM OVC023 M16/M19 A3001 RMK AO1 SLP220
METAR CYNL 281000Z AUTO 00003KT 9SM OVC023 M14/M18 A2999 RMK AO1 SLP213
METAR CYNL 280900Z AUTO 00006KT 9SM OVC024 M13/M17 A2998 RMK AO1 SLP207
METAR CYNL 280800Z AUTO 00005KT 9SM OVC025 M13/M16 A2996 RMK AO1 PRESRR SLP199
METAR CYNL 280700Z AUTO 02006KT 9SM OVC025 M12/M16 A2994 RMK AO1 PRESRR SLP189
SPECI CYNL 280646Z AUTO 02007KT 9SM OVC025 M12/M16 A2993 RMK AO1 PRESRR SLP185
METAR CYNL 280600Z AUTO 01006KT 9SM OVC023 M11/M15 A2991 RMK AO1 PRESRR SLP179
SPECI CYNL 280504Z AUTO 03007KT 9SM OVC024 M10/M14 A2989 RMK AO1 PRESRR SLP168
METAR CYNL 280500Z AUTO 02006KT 9SM OVC025 M10/M14 A2989 RMK AO1 PRESRR SLP168
METAR CYNL 280400Z AUTO 00004KT 9SM OVC027 M10/M14 A2986 RMK AO1 PRESRR SLP158
METAR CYNL 280300Z AUTO 03002KT 9SM OVC027 M10/M15 A2983 RMK AO1 PRESRR SLP151
SPECI CYNL 280206Z AUTO 04006KT 9SM OVC025 M10/M15 A2981 RMK AO1 PRESRR SLP143
METAR CYNL 280200Z AUTO 05005KT 9SM OVC024 M10/M15 A2981 RMK AO1 PRESRR SLP143
METAR CYNL 280100Z AUTO 03005KT 9SM OVC021 M10/M14 A2978 RMK AO1 PRESRR SLP132
METAR CYNL 280000Z AUTO 05006KT 9SM OVC019 M10/M14 A2976 RMK AO1 PRESRR SLP124
METAR CYNL 272300Z AUTO 04009KT 9SM OVC016 M09/M13 A2973 RMK AO1 PRESRR SLP115
SPECI CYNL 272226Z AUTO 07009KT 9SM OVC015 M09/M13 A2972 RMK AO1 PRESRR SLP109
METAR CYNL 272200Z AUTO 04010KT 9SM OVC014 M09/M13 A2970 RMK AO1 PRESRR SLP104
METAR CYNL 272100Z AUTO 04009KT 9SM OVC013 M08/M12 A2967 RMK AO1 PRESRR SLP091
METAR CYNL 272000Z AUTO 03009KT 9SM OVC011 M08/M12 A2965 RMK AO1 PRESRR SLP081
METAR CYNL 271900Z AUTO 04009KT 9SM OVC011 M07/M10 A2962 RMK AO1 PRESRR SLP072
METAR CYNL 271800Z AUTO 04010KT 9SM OVC010 M07/M10 A2960 RMK AO1 SLP062
METAR CYNL 271700Z AUTO 06007KT 9SM BKN010 OVC017 M07/M09 A2958 RMK AO1 PRESRR SLP055
SPECI CYNL 271640Z AUTO 05007KT 5SM VV011 M07/M10 A2957 RMK AO1 SLP052
SPECI CYNL 271638Z AUTO 06006KT 4SM VV009 M07/M09 A2957 RMK AO1 SLP052
SPECI CYNL 271622Z AUTO 05007KT 4SM VV014 M07/M10 A2956 RMK AO1 SLP050
SPECI CYNL 271614Z AUTO 05007KT 3SM VV015 M07/M10 A2956 RMK AO1 SLP050
SPECI CYNL 271613Z AUTO 05007KT 3SM VV014 M07/M10 A2956 RMK AO1 SLP050
SPECI CYNL 271604Z AUTO 05007KT 2 1/2SM VV014 M07/M10 A2956 RMK AO1 SLP049
SPECI CYNL 271602Z AUTO 05006KT 2 1/2SM VV015 M07/M10 A2956 RMK AO1 SLP049
METAR CYNL 271600Z AUTO 05007KT 2SM VV014 M08/M10 A2956 RMK AO1 SLP048
SPECI CYNL 271557Z AUTO 05008KT 2SM VV014 M08/M10 A2955 RMK AO1 SLP048
SPECI CYNL 271554Z AUTO 05008KT 2 1/2SM VV016 M08/M10 A2955 RMK AO1 SLP047
SPECI CYNL 271544Z AUTO 05007KT 3SM VV018 M08/M10 A2955 RMK AO1 SLP046
SPECI CYNL 271541Z AUTO 05007KT 2SM VV015 M08/M10 A2955 RMK AO1 SLP045
SPECI CYNL 271539Z AUTO 05008KT 1 3/4SM VV015 M08/M10 A2955 RMK AO1 SLP045
SPECI CYNL 271536Z AUTO 06007KT 1 1/2SM VV014 M08/M10 A2955 RMK AO1 SLP045
SPECI CYNL 271531Z AUTO 05008KT 1 3/4SM VV016 M08/M10 A2955 RMK AO1 SLP045
SPECI CYNL 271528Z AUTO 06008KT 2 1/2SM SCT011 BKN016 OVC026 M08/M10 A2955 RMK AO1 SLP045
SPECI CYNL 271527Z AUTO 06008KT 3SM BKN011 BKN016 OVC026 M08/M10 A2955 RMK AO1 SLP045
SPECI CYNL 271525Z AUTO 05008KT 4SM SCT011 BKN015 OVC026 M08/M10 A2955 RMK AO1 SLP045
SPECI CYNL 271518Z AUTO 05008KT 7SM BKN012 OVC027 M08/M10 A2954 RMK AO1 SLP045
SPECI CYNL 271514Z AUTO 05007KT 6SM VV015 M08/M10 A2954 RMK AO1 SLP044
METAR CYNL 271500Z AUTO 06006KT 5SM SCT011 BKN014 OVC016 M08/M10 A2954 RMK AO1 SLP043
SPECI CYNL 271443Z AUTO 06006KT 7SM VV014 M08/M10 A2954 RMK AO1 SLP041
SPECI CYNL 271435Z AUTO 06006KT 8SM VV015 M08/M10 A2953 RMK AO1 SLP040
SPECI CYNL 271431Z AUTO 06007KT 5SM VV013 M08/M09 A2953 RMK AO1 SLP040
SPECI CYNL 271429Z AUTO 05006KT 4SM SCT011 OVC018 M08/M09 A2953 RMK AO1 SLP039
SPECI CYNL 271428Z AUTO 05006KT 3SM SCT011 BKN014 OVC018 M08/M09 A2953 RMK AO1 SLP039
METAR CYNL 271400Z AUTO 05008KT 4SM VV021 M08/M09 A2953 RMK AO1 SLP038
SPECI CYNL 271358Z AUTO 05007KT 3SM VV021 M08/M09 A2953 RMK AO1 SLP038
SPECI CYNL 271351Z AUTO 05007KT 2 1/2SM VV020 M08/M09 A2953 RMK AO1 SLP038
SPECI CYNL 271346Z AUTO 05007KT 3SM VV022 M08/M09 A2953 RMK AO1 SLP038
SPECI CYNL 271344Z AUTO 05007KT 2 1/2SM VV024 M08/M09 A2953 RMK AO1 SLP037
SPECI CYNL 271343Z AUTO 04007KT 2 1/2SM VV025 M08/M09 A2952 RMK AO1 SLP037
SPECI CYNL 271338Z AUTO 05007KT 3SM VV026 M07/M09 A2952 RMK AO1 SLP037
SPECI CYNL 271334Z AUTO 05007KT 3SM VV019 M07/M09 A2952 RMK AO1 SLP037
SPECI CYNL 271332Z AUTO 05007KT 2SM VV016 M07/M09 A2952 RMK AO1 SLP036
SPECI CYNL 271329Z AUTO 04007KT 1 1/2SM VV016 M07/M09 A2952 RMK AO1 SLP036
SPECI CYNL 271328Z AUTO 04007KT 1 1/4SM VV015 M07/M09 A2952 RMK AO1 SLP036
SPECI CYNL 271325Z AUTO 05007KT 1 1/2SM VV015 M07/M09 A2952 RMK AO1 SLP036
SPECI CYNL 271324Z AUTO 05007KT 1 1/2SM VV014 M07/M09 A2952 RMK AO1 SLP036
SPECI CYNL 271322Z AUTO 04007KT 1 1/4SM VV014 M07/M09 A2952 RMK AO1 SLP036
SPECI CYNL 271319Z AUTO 04006KT 1 1/2SM VV012 M07/M09 A2952 RMK AO1 SLP037
SPECI CYNL 271312Z AUTO 05006KT 1SM VV014 M07/M09 A2952 RMK AO1 SLP036
SPECI CYNL 271310Z AUTO 05006KT 1 1/4SM VV016 M07/M09 A2952 RMK AO1 SLP036
SPECI CYNL 271307Z AUTO 05006KT 1 3/4SM VV019 M07/M09 A2952 RMK AO1 SLP036
SPECI CYNL 271302Z AUTO 05007KT 2 1/2SM VV023 M07/M09 A2952 RMK AO1 SLP036
METAR CYNL 271300Z AUTO 05006KT 3SM SCT009 BKN018 OVC024 M07/M09 A2952 RMK AO1 SLP036
SPECI CYNL 271255Z AUTO 05007KT 4SM SCT009 OVC018 M07/M09 A2952 RMK AO1 SLP036
SPECI CYNL 271253Z AUTO 05006KT 4SM SCT009 BKN011 OVC017 M07/M09 A2952 RMK AO1 SLP036
SPECI CYNL 271221Z AUTO 05007KT 3SM BKN008 BKN013 OVC022 M07/M08 A2952 RMK AO1 SLP033
SPECI CYNL 271218Z AUTO 05007KT 2SM BKN008 OVC023 M07/M08 A2952 RMK AO1 SLP033
SPECI CYNL 271217Z AUTO 05007KT 1 3/4SM BKN008 OVC024 M07/M08 A2952 RMK AO1 SLP033
SPECI CYNL 271213Z AUTO 06007KT 1 1/2SM SCT007 BKN011 BKN023 M07/M08 A2952 RMK AO1 SLP033
SPECI CYNL 271212Z AUTO 06006KT 1 1/2SM SCT007 BKN015 BKN023 M07/M08 A2952 RMK AO1 SLP033
SPECI CYNL 271210Z AUTO 06007KT 1 3/4SM SCT008 BKN013 BKN023 M07/M08 A2952 RMK AO1 SLP033
SPECI CYNL 271209Z AUTO 06007KT 1 3/4SM SCT008 BKN023 OVC031 M07/M08 A2952 RMK AO1 SLP033
SPECI CYNL 271206Z AUTO 06006KT 2 1/2SM FEW008 SCT014 BKN024 M07/M08 A2952 RMK AO1 SLP033
SPECI CYNL 271202Z AUTO 06006KT 5SM FEW009 BKN023 OVC030 M07/M08 A2952 RMK AO1 SLP033
METAR CYNL 271200Z AUTO 06006KT 8SM FEW015 BKN023 OVC029 M07/M08 A2952 RMK AO1 SLP033
SPECI CYNL 271155Z AUTO 05005KT 9SM VV024 M07/M08 A2952 RMK AO1 SLP033
SPECI CYNL 271144Z AUTO 05005KT 9SM SCT010 OVC029 M06/M08 A2952 RMK AO1 SLP034
SPECI CYNL 271143Z AUTO 05005KT 9SM FEW009 SCT011 OVC030 M06/M08 A2952 RMK AO1 SLP034
SPECI CYNL 271137Z AUTO 05005KT 9SM FEW007 SCT009 OVC028 M06/M08 A2952 RMK AO1 SLP033
SPECI CYNL 271128Z AUTO 05005KT 3SM SCT009 BKN012 OVC030 M06/M08 A2952 RMK AO1 SLP034
SPECI CYNL 271127Z AUTO 05005KT 3SM BKN010 OVC030 M06/M08 A2952 RMK AO1 SLP035
SPECI CYNL 271124Z AUTO 05004KT 3SM VV009 M06/M07 A2952 RMK AO1 SLP034
SPECI CYNL 271122Z AUTO 06004KT 3SM VV010 M06/M07 A2952 RMK AO1 SLP035
SPECI CYNL 271108Z AUTO 06004KT 2 1/2SM OVC011 M06/M07 A2953 RMK AO1 SLP036
METAR CYNL 271100Z AUTO 07003KT 3SM OVC011 M06/M07 A2953 RMK AO1 SLP036
SPECI CYNL 271025Z AUTO 08005KT 3SM SCT004 OVC010 M06/M07 A2953 RMK AO1 SLP036
SPECI CYNL 271023Z AUTO 08004KT 3SM BKN004 OVC010 M06/M07 A2953 RMK AO1 SLP036
SPECI CYNL 271016Z AUTO 08004KT 2 1/2SM BKN004 OVC008 M06/M07 A2953 RMK AO1 SLP036
METAR CYNL 271000Z AUTO 08004KT 9SM SCT003 OVC008 M06/M06 A2953 RMK AO1 SLP038
METAR CYNL 270900Z AUTO 00000KT 9SM OVC007 M05/M07 A2954 RMK AO1 SLP039
METAR CYNL 270800Z AUTO 24002KT 9SM OVC008 M05/M07 A2956 RMK AO1 SLP046
METAR CYNL 270700Z AUTO 24003KT 9SM OVC009 M05/M07 A2957 RMK AO1 PRESFR SLP051
SPECI CYNL 270613Z AUTO 30005KT 9SM BKN009 OVC011 M05/M07 A2959 RMK AO1 PRESFR SLP059
SPECI CYNL 270611Z AUTO 30004KT 9SM SCT008 OVC010 M05/M07 A2959 RMK AO1 PRESFR SLP060
METAR CYNL 270600Z AUTO 30006KT 9SM OVC009 M05/M07 A2960 RMK AO1 PRESFR SLP063
SPECI CYNL 270538Z AUTO 28005KT 9SM OVC009 M05/M06 A2962 RMK AO1 PRESFR SLP069
SPECI CYNL 270524Z AUTO 29007KT 9SM OVC010 M04/M06 A2962 RMK AO1 PRESFR SLP071
SPECI CYNL 270516Z AUTO 28005KT 9SM BKN009 OVC011 M04/M06 A2963 RMK AO1 PRESFR SLP072
SPECI CYNL 270515Z AUTO 28005KT 9SM OVC010 M04/M06 A2963 RMK AO1 PRESFR SLP072
SPECI CYNL 270513Z AUTO 28005KT 9SM BKN009 OVC011 M04/M06 A2963 RMK AO1 PRESFR SLP073
METAR CYNL 270500Z AUTO 26004KT 9SM BKN011 OVC014 M04/M06 A2963 RMK AO1 PRESFR SLP072
METAR CYNL 270400Z AUTO 28006KT 9SM OVC010 M04/M06 A2966 RMK AO1 SLP083
METAR CYNL 270300Z AUTO 27006KT 9SM BKN011 BKN014 OVC056 M04/M06 A2967 RMK AO1 SLP090
SPECI CYNL 270249Z AUTO 28008KT 9SM SCT011 BKN014 OVC056 M04/M06 A2967 RMK AO1 PRESFR SLP092
SPECI CYNL 270247Z AUTO 28007KT 9SM SCT011 BKN018 OVC056 M04/M06 A2968 RMK AO1 PRESFR SLP093
SPECI CYNL 270224Z AUTO 29006KT 9SM SCT011 OVC058 M04/M06 A2967 RMK AO1 PRESFR SLP090
SPECI CYNL 270220Z AUTO 28009KT 9SM SCT011 BKN017 OVC060 M04/M06 A2967 RMK AO1 PRESFR SLP090
SPECI CYNL 270208Z AUTO 27005KT 9SM SCT010 BKN013 BKN027 M04/M06 A2967 RMK AO1 PRESFR SLP092
METAR CYNL 270200Z AUTO 27004KT 9SM FEW010 BKN015 BKN020 M04/M06 A2967 RMK AO1 PRESFR SLP092
SPECI CYNL 270149Z AUTO 28005KT 9SM FEW011 BKN015 OVC020 M04/M06 A2967 RMK AO1 SLP097
SPECI CYNL 270148Z AUTO 27005KT 9SM BKN012 OVC018 M04/M06 A2967 RMK AO1 SLP098
SPECI CYNL 270122Z AUTO 27004KT 9SM SCT010 OVC016 M04/M06 A2969 RMK AO1 SLP102
SPECI CYNL 270121Z AUTO 26004KT 9SM BKN010 OVC016 M04/M06 A2969 RMK AO1 SLP102
SPECI CYNL 270120Z AUTO 27004KT 9SM BKN009 OVC015 M04/M06 A2969 RMK AO1 SLP103
SPECI CYNL 270117Z AUTO 27004KT 7SM SCT009 BKN011 OVC015 M04/M05 A2969 RMK AO1 SLP103
SPECI CYNL 270116Z AUTO 27004KT 5SM BKN009 BKN012 OVC015 M04/M05 A2969 RMK AO1 SLP103
METAR CYNL 270100Z AUTO 27004KT 7SM FEW008 BKN013 BKN019 M04/M06 A2971 RMK AO1 SLP109
SPECI CYNL 270057Z AUTO 27004KT 4SM SCT008 BKN014 BKN018 M04/M06 A2971 RMK AO1 SLP113
SPECI CYNL 270056Z AUTO 28005KT 2 1/2SM SCT008 BKN015 M04/M06 A2971 RMK AO1 SLP113
SPECI CYNL 270055Z AUTO 27005KT 1 1/4SM VV008 M04/M06 A2971 RMK AO1 SLP113
SPECI CYNL 270054Z AUTO 28005KT 3/4SM VV008 M04/M06 A2971 RMK AO1 SLP113
SPECI CYNL 270052Z AUTO 27004KT 1/2SM VV009 M04/M06 A2971 RMK AO1 SLP113
SPECI CYNL 270049Z AUTO 27004KT 5/8SM FEW008 SCT013 BKN018 M04/M06 A2971 RMK AO1 SLP113
SPECI CYNL 270048Z AUTO 27005KT 1 1/4SM FEW009 SCT013 BKN018 M04/M06 A2971 RMK AO1 SLP113
METAR CYNL 270000Z AUTO 28005KT 9SM FEW012 OVC024 M04/M06 A2972 RMK AO1 SLP115
SPECI CYNL 262354Z AUTO 28004KT 9SM SCT012 BKN024 OVC062 M04/M06 A2972 RMK AO1 SLP114
SPECI CYNL 262348Z AUTO 27004KT 9SM SCT012 BKN026 BKN062 M04/M06 A2972 RMK AO1 SLP114
SPECI CYNL 262347Z AUTO 28004KT 9SM SCT012 BKN016 BKN062 M04/M06 A2972 RMK AO1 SLP114
SPECI CYNL 262333Z AUTO 28004KT 9SM BKN013 BKN062 M04/M06 A2972 RMK AO1 SLP115
SPECI CYNL 262332Z AUTO 28005KT 9SM SCT013 BKN031 BKN062 M04/M06 A2972 RMK AO1 SLP115
METAR CYNL 262300Z AUTO 30007KT 9SM BKN013 OVC031 M04/M06 A2973 RMK AO1 SLP117
METAR CYNL 262200Z AUTO 28007KT 9SM BKN012 OVC015 M03/M06 A2973 RMK AO1 SLP118
SPECI CYNL 262121Z AUTO 30011KT 7SM OVC010 M04/M06 A2974 RMK AO1 SLP118
SPECI CYNL 262120Z AUTO 30012KT 8SM BKN009 OVC011 M04/M06 A2974 RMK AO1 SLP118
SPECI CYNL 262111Z AUTO 29008KT 6SM SCT008 BKN010 OVC012 M04/M06 A2974 RMK AO1 SLP119
SPECI CYNL 262106Z AUTO 29005KT 3SM BKN008 OVC011 M04/M06 A2974 RMK AO1 SLP119
SPECI CYNL 262104Z AUTO 30008KT 2 1/2SM BKN008 OVC011 M04/M06 A2974 RMK AO1 SLP119
METAR CYNL 262100Z AUTO 28006KT 9SM OVC008 M04/M06 A2974 RMK AO1 SLP120
METAR CYNL 262000Z AUTO 26007KT 9SM OVC008 M05/M07 A2975 RMK AO1 SLP123
SPECI CYNL 261910Z AUTO 26008KT 8SM BKN009 BKN012 OVC019 M06/M08 A2976 RMK AO1 SLP126
SPECI CYNL 261909Z AUTO 27008KT 7SM SCT009 BKN012 OVC019 M06/M08 A2976 RMK AO1 SLP126
METAR CYNL 261900Z AUTO 26007KT 9SM BKN011 OVC020 M06/M08 A2976 RMK AO1 SLP127
SPECI CYNL 261855Z AUTO 26009KT 9SM FEW009 BKN012 OVC020 M06/M08 A2977 RMK AO1 SLP127
SPECI CYNL 261851Z AUTO 26008KT 9SM FEW009 SCT013 BKN015 M06/M08 A2977 RMK AO1 SLP127
SPECI CYNL 261850Z AUTO 27007KT 8SM FEW009 BKN013 OVC020 M06/M08 A2977 RMK AO1 SLP127
SPECI CYNL 261849Z AUTO 27006KT 5SM FEW009 SCT012 BKN015 M06/M08 A2977 RMK AO1 SLP127
SPECI CYNL 261846Z AUTO 27005KT 3SM VV019 M06/M08 A2977 RMK AO1 SLP127
SPECI CYNL 261844Z AUTO 26005KT 2SM VV021 M06/M08 A2977 RMK AO1 SLP127
SPECI CYNL 261843Z AUTO 26006KT 1 3/4SM VV020 M06/M08 A2977 RMK AO1 SLP127
SPECI CYNL 261838Z AUTO 27006KT 2SM VV016 M06/M08 A2977 RMK AO1 SLP128
SPECI CYNL 261837Z AUTO 27007KT 1 3/4SM VV015 M06/M08 A2977 RMK AO1 SLP128
SPECI CYNL 261835Z AUTO 27006KT 1 3/4SM SCT009 BKN011 BKN019 M06/M08 A2977 RMK AO1 SLP128
SPECI CYNL 261832Z AUTO 27005KT 1 3/4SM BKN010 OVC037 M06/M08 A2977 RMK AO1 SLP129
SPECI CYNL 261830Z AUTO 27006KT 2SM BKN010 OVC037 M06/M08 A2977 RMK AO1 SLP129
SPECI CYNL 261829Z AUTO 26007KT 1 3/4SM SCT009 BKN011 OVC037 M06/M08 A2977 RMK AO1 SLP130
SPECI CYNL 261828Z AUTO 27007KT 2SM SCT009 BKN011 OVC037 M06/M08 A2977 RMK AO1 SLP130
SPECI CYNL 261826Z AUTO 27006KT 2 1/2SM SCT010 BKN019 OVC036 M06/M08 A2978 RMK AO1 SLP131
SPECI CYNL 261822Z AUTO 28006KT 7SM SCT010 BKN020 OVC036 M06/M08 A2978 RMK AO1 SLP132
METAR CYNL 261800Z AUTO 28009KT 9SM FEW008 OVC036 M07/M09 A2978 RMK AO1 SLP134
SPECI CYNL 261738Z AUTO 29008KT 9SM SCT008 OVC040 M07/M09 A2978 RMK AO1 SLP133
METAR CYNL 261700Z AUTO 30008G18KT 4SM OVC005 M08/M10 A2979 RMK AO1 SLP137
METAR CYNL 261600Z AUTO 31009KT 9SM BKN006 OVC009 M09/M11 A2979 RMK AO1 SLP137
SPECI CYNL 261541Z AUTO 29007KT 9SM BKN009 OVC011 M09/M11 A2979 RMK AO1 SLP136
SPECI CYNL 261512Z AUTO 28005KT 9SM SCT003 OVC011 M10/M12 A2980 RMK AO1 SLP138
METAR CYNL 261500Z AUTO 29005KT 9SM OVC003 M11/M12 A2980 RMK AO1 SLP140
SPECI CYNL 261442Z AUTO 29007KT 9SM BKN003 M12/M14 A2980 RMK AO1 SLP141
SPECI CYNL 261430Z AUTO 28006KT 9SM FEW004 M12/M15 A2980 RMK AO1 SLP140
METAR CYNL 261400Z AUTO 26004KT 9SM CLR M15/M18 A2979 RMK AO1 SLP140
METAR CYNL 261300Z AUTO 27005KT 9SM CLR M18/M21 A2980 RMK AO1 SLP146
METAR CYNL 261200Z AUTO 26004KT 9SM CLR M16/M19 A2981 RMK AO1 SLP147
METAR CYNL 261100Z AUTO 25004KT 9SM CLR M16/M18 A2982 RMK AO1 SLP152
METAR CYNL 261000Z AUTO 25003KT 9SM CLR M14/M16 A2982 RMK AO1 SLP148
METAR CYNL 260900Z AUTO 25003KT 9SM CLR M14/M16 A2983 RMK AO1 SLP152
METAR CYNL 260800Z AUTO 20004KT 9SM CLR M12/M14 A2985 RMK AO1 PRESFR SLP155
METAR CYNL 260700Z AUTO 19004KT 9SM CLR M12/M13 A2987 RMK AO1 PRESFR SLP161
METAR CYNL 260600Z AUTO 19005KT 9SM CLR M11/M12 A2990 RMK AO1 PRESFR SLP171
METAR CYNL 260500Z AUTO 19004KT 9SM CLR M10/M12 A2993 RMK AO1 PRESFR SLP179
METAR CYNL 260400Z AUTO 18003KT 9SM SCT028 M08/M11 A2995 RMK AO1 PRESFR SLP187
SPECI CYNL 260359Z AUTO 18003KT 9SM SCT028 M08/M11 A2996 RMK AO1 PRESFR SLP188
SPECI CYNL 260344Z AUTO 18004KT 9SM BKN029 M08/M11 A2996 RMK AO1 PRESFR SLP191
SPECI CYNL 260314Z AUTO 18005KT 9SM OVC030 M07/M10 A2998 RMK AO1 PRESFR SLP194
METAR CYNL 260300Z AUTO 18007KT 9SM OVC029 M06/M10 A2998 RMK AO1 PRESFR SLP194
METAR CYNL 260200Z AUTO 17005KT 9SM OVC026 M06/M10 A3000 RMK AO1 PRESFR SLP202
METAR CYNL 260100Z AUTO 17004KT 9SM OVC027 M06/M10 A3003 RMK AO1 PRESFR SLP211
METAR CYNL 260000Z AUTO 18002KT 9SM OVC026 M06/M10 A3005 RMK AO1 PRESFR SLP218
SPECI CYNL 252315Z AUTO 24005KT 9SM OVC025 M06/M10 A3006 RMK AO1 SLP222
METAR CYNL 252300Z AUTO 23007KT 9SM OVC022 M05/M10 A3007 RMK AO1 SLP225
METAR CYNL 252200Z AUTO 23003KT 9SM OVC020 M05/M10 A3008 RMK AO1 SLP229
SPECI CYNL 252131Z AUTO 25005KT 9SM FEW018 OVC024 M05/M10 A3009 RMK AO1 PRESFR SLP232
METAR CYNL 252100Z AUTO 00000KT 9SM FEW011 OVC025 M05/M09 A3010 RMK AO1 PRESFR SLP235
SPECI CYNL 252052Z AUTO 00000KT 9SM FEW013 OVC025 M05/M09 A3010 RMK AO1 PRESFR SLP236
SPECI CYNL 252039Z AUTO 24003KT 4SM VV017 M05/M09 A3011 RMK AO1 PRESFR SLP238
SPECI CYNL 252038Z AUTO 23002KT 2 1/2SM VV016 M05/M09 A3011 RMK AO1 PRESFR SLP238
SPECI CYNL 252036Z AUTO 23003KT 1 3/4SM VV013 M05/M09 A3011 RMK AO1 PRESFR SLP239
SPECI CYNL 252034Z AUTO 23004KT 1SM VV013 M05/M09 A3011 RMK AO1 PRESFR SLP239
SPECI CYNL 252033Z AUTO 24005KT 5/8SM VV013 M05/M09 A3011 RMK AO1 PRESFR SLP240
SPECI CYNL 252032Z AUTO 25004KT 3/4SM VV014 M05/M09 A3011 RMK AO1 PRESFR SLP240
SPECI CYNL 252031Z AUTO 24005KT 1SM VV014 M05/M10 A3012 RMK AO1 PRESFR SLP240
SPECI CYNL 252027Z AUTO 23005KT 1 1/4SM VV020 M05/M10 A3012 RMK AO1 PRESFR SLP240
SPECI CYNL 252026Z AUTO 23005KT 1 1/2SM VV022 M05/M10 A3012 RMK AO1 PRESFR SLP240
SPECI CYNL 252025Z AUTO 23005KT 2SM VV024 M05/M10 A3012 RMK AO1 PRESFR SLP240
METAR CYNL 252000Z AUTO 21003KT 9SM OVC027 M05/M10 A3012 RMK AO1 PRESFR SLP242
SPECI CYNL 251951Z AUTO 27004KT 230V310 9SM OVC029 M05/M11 A3013 RMK AO1 SLP243
SPECI CYNL 251950Z AUTO 27005KT 230V310 9SM OVC030 M05/M11 A3013 RMK AO1 SLP243
SPECI CYNL 251947Z AUTO 28007KT 250V310 9SM OVC029 M05/M11 A3013 RMK AO1 SLP244
SPECI CYNL 251946Z AUTO 28007KT 250V310 9SM OVC030 M05/M11 A3013 RMK AO1 SLP244
SPECI CYNL 251945Z AUTO 28007KT 250V310 9SM OVC029 M05/M11 A3013 RMK AO1 SLP244
METAR CYNL 251900Z AUTO 26004KT 9SM SCT022 BKN031 M05/M10 A3015 RMK AO1 SLP252
SPECI CYNL 251854Z AUTO 27003KT 9SM SCT022 BKN030 M05/M10 A3016 RMK AO1 SLP254
SPECI CYNL 251845Z AUTO 28004KT 9SM SCT023 BKN028 BKN033 M05/M10 A3016 RMK AO1 SLP255
SPECI CYNL 251840Z AUTO 25005KT 6SM SCT023 OVC032 M05/M10 A3016 RMK AO1 SLP255
SPECI CYNL 251838Z AUTO 30004KT 260V330 9SM SCT023 BKN029 OVC034 M05/M10 A3016 RMK AO1 SLP256
SPECI CYNL 251837Z AUTO 30005KT 260V330 9SM SCT023 OVC032 M05/M10 A3016 RMK AO1 SLP256
SPECI CYNL 251835Z AUTO 28003KT 9SM BKN026 OVC034 M05/M11 A3016 RMK AO1 SLP256
METAR CYNL 251800Z AUTO 30004KT 9SM BKN033 M05/M11 A3017 RMK AO1 SLP259
METAR CYNL 251700Z AUTO 29006KT 9SM OVC034 M06/M11 A3019 RMK AO1 SLP266
METAR CYNL 251600Z AUTO 29005KT 9SM OVC036 M06/M10 A3020 RMK AO1 SLP270
METAR CYNL 251500Z AUTO 29005KT 9SM OVC038 M07/M09 A3020 RMK AO1 SLP272
SPECI CYNL 251416Z AUTO 30005KT 6SM FEW008 SCT025 OVC037 M07/M09 A3020 RMK AO1 SLP272
METAR CYNL 251400Z AUTO 30005KT 9SM SCT012 OVC037 M07/M09 A3020 RMK AO1 SLP272
SPECI CYNL 251351Z AUTO 30006KT 9SM SCT012 OVC038 M07/M09 A3020 RMK AO1 SLP272
SPECI CYNL 251348Z AUTO 30007KT 9SM SCT012 BKN021 OVC039 M07/M09 A3020 RMK AO1 SLP272
SPECI CYNL 251343Z AUTO 30007KT 9SM FEW006 SCT012 BKN014 M07/M09 A3021 RMK AO1 SLP273
SPECI CYNL 251342Z AUTO 30007KT 9SM FEW006 SCT012 BKN019 M07/M09 A3021 RMK AO1 SLP273
SPECI CYNL 251338Z AUTO 30007KT 9SM FEW006 SCT011 BKN014 M07/M09 A3021 RMK AO1 SLP273
SPECI CYNL 251336Z AUTO 31008KT 3SM VV013 M07/M09 A3021 RMK AO1 SLP273
SPECI CYNL 251335Z AUTO 30006KT 1 1/2SM VV012 M07/M09 A3021 RMK AO1 SLP273
SPECI CYNL 251334Z AUTO 30005KT 1 1/4SM VV013 M07/M09 A3021 RMK AO1 SLP273
SPECI CYNL 251332Z AUTO 30005KT 2 1/2SM BKN011 OVC039 M07/M09 A3021 RMK AO1 SLP273
SPECI CYNL 251331Z AUTO 30005KT 3SM BKN011 OVC039 M07/M09 A3021 RMK AO1 SLP273
SPECI CYNL 251330Z AUTO 31007KT 2 1/2SM BKN011 OVC039 M07/M09 A3021 RMK AO1 SLP273
METAR CYNL 251300Z AUTO 31007KT 9SM OVC010 M07/M09 A3021 RMK AO1 SLP275
SPECI CYNL 251209Z AUTO 30004KT 9SM BKN012 M06/M08 A3021 RMK AO1 SLP273
SPECI CYNL 251206Z AUTO 31004KT 9SM SCT012 BKN022 M06/M08 A3021 RMK AO1 SLP272
SPECI CYNL 251201Z AUTO 31005KT 9SM SCT012 BKN030 M06/M08 A3021 RMK AO1 SLP273
METAR CYNL 251200Z AUTO 32005KT 9SM SCT012 BKN025 M06/M08 A3021 RMK AO1 SLP273
SPECI CYNL 251159Z AUTO 32005KT 9SM SCT012 BKN025 M06/M08 A3021 RMK AO1 SLP273
SPECI CYNL 251158Z AUTO 32004KT 9SM BKN012 BKN045 M06/M08 A3021 RMK AO1 SLP273
SPECI CYNL 251156Z AUTO 31003KT 9SM SCT012 BKN017 BKN025 M06/M08 A3021 RMK AO1 SLP272
SPECI CYNL 251148Z AUTO 31004KT 5SM FEW011 BKN014 OVC021 M06/M08 A3021 RMK AO1 SLP273
SPECI CYNL 251140Z AUTO 30005KT 3SM VV022 M06/M08 A3021 RMK AO1 SLP273
SPECI CYNL 251139Z AUTO 30005KT 2 1/2SM VV021 M06/M08 A3021 RMK AO1 SLP273
SPECI CYNL 251138Z AUTO 30004KT 3SM VV020 M06/M08 A3021 RMK AO1 SLP273
SPECI CYNL 251135Z AUTO 30005KT 2SM VV017 M06/M08 A3021 RMK AO1 SLP273
SPECI CYNL 251132Z AUTO 31006KT 1 3/4SM VV015 M06/M08 A3021 RMK AO1 SLP273
SPECI CYNL 251129Z AUTO 29006KT 2SM VV016 M06/M08 A3021 RMK AO1 SLP273
SPECI CYNL 251128Z AUTO 29005KT 1 3/4SM VV016 M06/M08 A3021 RMK AO1 SLP273
SPECI CYNL 251124Z AUTO 29006KT 2SM FEW012 BKN017 OVC024 M06/M08 A3021 RMK AO1 SLP274
SPECI CYNL 251122Z AUTO 29005KT 1 3/4SM BKN016 OVC024 M06/M08 A3021 RMK AO1 SLP274
SPECI CYNL 251120Z AUTO 30006KT 2 1/2SM VV020 M06/M08 A3021 RMK AO1 SLP274
SPECI CYNL 251105Z AUTO 31006KT 3SM VV018 M06/M08 A3021 RMK AO1 SLP273
METAR CYNL 251100Z AUTO 30006KT 2SM VV016 M06/M08 A3021 RMK AO1 SLP273
SPECI CYNL 251053Z AUTO 30004KT 2 1/2SM VV018 M06/M08 A3021 RMK AO1 SLP274
SPECI CYNL 251046Z AUTO 29006KT 3SM VV024 M06/M08 A3021 RMK AO1 SLP274
SPECI CYNL 251045Z AUTO 28005KT 2 1/2SM VV025 M06/M08 A3021 RMK AO1 SLP274
SPECI CYNL 251044Z AUTO 28005KT 3SM VV025 M06/M08 A3021 RMK AO1 SLP274
SPECI CYNL 251043Z AUTO 28004KT 2 1/2SM VV025 M06/M08 A3021 RMK AO1 SLP274
SPECI CYNL 251042Z AUTO 29004KT 3SM VV025 M06/M08 A3021 RMK AO1 SLP274
SPECI CYNL 251037Z AUTO 28003KT 3SM VV022 M06/M08 A3021 RMK AO1 SLP274
SPECI CYNL 251036Z AUTO 28004KT 2 1/2SM VV022 M06/M08 A3021 RMK AO1 SLP274
SPECI CYNL 251035Z AUTO 29005KT 3SM VV021 M06/M08 A3021 RMK AO1 SLP274
SPECI CYNL 251034Z AUTO 29005KT 2 1/2SM VV020 M06/M08 A3021 RMK AO1 SLP274
SPECI CYNL 251029Z AUTO 30006KT 4SM VV024 M06/M08 A3021 RMK AO1 SLP274
SPECI CYNL 251023Z AUTO 30005KT 3SM VV025 M06/M08 A3021 RMK AO1 SLP274
SPECI CYNL 251017Z AUTO 29006KT 5SM SCT012 BKN015 OVC029 M06/M08 A3021 RMK AO1 SLP274
METAR CYNL 251000Z AUTO 30004KT 9SM BKN012 OVC049 M06/M08 A3022 RMK AO1 SLP276
SPECI CYNL 250949Z AUTO 30004KT 9SM BKN012 OVC049 M06/M08 A3022 RMK AO1 SLP275
SPECI CYNL 250937Z AUTO 32003KT 9SM SCT011 OVC049 M07/M09 A3022 RMK AO1 SLP275
SPECI CYNL 250918Z AUTO 33004KT 4SM FEW002 BKN011 BKN047 M06/M09 A3022 RMK AO1 SLP276
SPECI CYNL 250917Z AUTO 33005KT 2 1/2SM FEW002 BKN012 BKN046 M06/M09 A3022 RMK AO1 SLP276
SPECI CYNL 250915Z AUTO 34005KT 1SM VV012 M06/M09 A3022 RMK AO1 SLP276
SPECI CYNL 250906Z AUTO 35006KT 1/2SM FEW003 BKN010 BKN044 M06/M08 A3022 RMK AO1 SLP276
SPECI CYNL 250905Z AUTO 35005KT 3/4SM FEW004 SCT011 BKN014 M06/M08 A3022 RMK AO1 SLP276
SPECI CYNL 250904Z AUTO 35006KT 1 3/4SM BKN011 BKN044 M06/M08 A3022 RMK AO1 SLP276
SPECI CYNL 250903Z AUTO 34007KT 2 1/2SM SCT010 BKN013 BKN043 M06/M08 A3022 RMK AO1 SLP276
SPECI CYNL 250902Z AUTO 34006KT 3SM FEW010 BKN013 BKN044 M06/M08 A3022 RMK AO1 SLP276
METAR CYNL 250900Z AUTO 33005KT 6SM SCT013 BKN021 BKN044 M06/M08 A3022 RMK AO1 SLP276
SPECI CYNL 250859Z AUTO 33005KT 9SM SCT013 BKN029 M06/M08 A3022 RMK AO1 SLP276
SPECI CYNL 250854Z AUTO 32004KT 9SM FEW005 SCT013 BKN045 M06/M08 A3022 RMK AO1 SLP276
SPECI CYNL 250853Z AUTO 31004KT 9SM FEW005 SCT013 BKN029 M06/M09 A3022 RMK AO1 SLP275
SPECI CYNL 250851Z AUTO 31007KT 9SM FEW005 SCT013 BKN021 M06/M09 A3022 RMK AO1 SLP275
SPECI CYNL 250849Z AUTO 32007KT 6SM FEW005 BKN013 OVC047 M06/M09 A3022 RMK AO1 SLP275
SPECI CYNL 250848Z AUTO 32007KT 1 1/2SM VV015 M06/M08 A3022 RMK AO1 SLP275
SPECI CYNL 250847Z AUTO 31006KT 1 1/4SM VV014 M06/M08 A3022 RMK AO1 SLP276
SPECI CYNL 250846Z AUTO 30005KT 1 1/4SM VV015 M06/M08 A3022 RMK AO1 SLP276
SPECI CYNL 250845Z AUTO 30007KT 2 1/2SM VV016 M06/M08 A3022 RMK AO1 SLP276
SPECI CYNL 250844Z AUTO 31008KT 5SM VV015 M06/M08 A3022 RMK AO1 SLP276
SPECI CYNL 250843Z AUTO 31007KT 3SM VV014 M06/M08 A3022 RMK AO1 SLP276
SPECI CYNL 250842Z AUTO 31007KT 2 1/2SM VV012 M06/M08 A3022 RMK AO1 SLP276
SPECI CYNL 250840Z AUTO 30008KT 1 1/2SM VV014 M06/M08 A3022 RMK AO1 SLP276
SPECI CYNL 250838Z AUTO 30006KT 1 1/4SM VV016 M06/M08 A3022 RMK AO1 SLP276
SPECI CYNL 250837Z AUTO 30007G19KT 1 1/4SM SCT014 BKN048 M06/M08 A3022 RMK AO1 SLP276
SPECI CYNL 250836Z AUTO 30008G19KT 1 3/4SM FEW013 SCT016 BKN048 M06/M08 A3022 RMK AO1 SLP276
SPECI CYNL 250835Z AUTO 29010G19KT 2 1/2SM FEW013 SCT016 BKN048 M06/M08 A3022 RMK AO1 SLP276
SPECI CYNL 250808Z AUTO 30007KT 9SM SCT013 OVC048 M06/M08 A3022 RMK AO1 SLP275
METAR CYNL 250800Z AUTO 30004KT 9SM SCT012 BKN022 OVC049 M06/M08 A3022 RMK AO1 SLP275
SPECI CYNL 250757Z AUTO 30007KT 9SM SCT012 BKN018 OVC049 M06/M08 A3022 RMK AO1 SLP275
SPECI CYNL 250754Z AUTO 30007KT 9SM SCT012 OVC049 M06/M08 A3022 RMK AO1 SLP275
SPECI CYNL 250752Z AUTO 30007KT 9SM SCT012 BKN016 OVC049 M06/M08 A3022 RMK AO1 SLP275
SPECI CYNL 250737Z AUTO 29006G16KT 9SM BKN012 OVC049 M06/M08 A3022 RMK AO1 SLP275
SPECI CYNL 250733Z AUTO 30009G16KT 9SM SCT012 BKN018 OVC049 M06/M08 A3022 RMK AO1 SLP275
METAR CYNL 250700Z AUTO 31010KT 9SM BKN012 BKN015 OVC050 M06/M08 A3022 RMK AO1 SLP275
SPECI CYNL 250631Z AUTO 30007KT 9SM BKN013 OVC054 M06/M08 A3022 RMK AO1 SLP275
SPECI CYNL 250623Z AUTO 29009KT 9SM SCT012 BKN015 BKN019 M06/M08 A3022 RMK AO1 SLP275
METAR CYNL 250600Z AUTO 30008KT 9SM BKN011 OVC019 M06/M08 A3022 RMK AO1 SLP276
METAR CYNL 250500Z AUTO 29005KT 9SM OVC010 M06/M08 A3023 RMK AO1 SLP278
METAR CYNL 250400Z AUTO 29008KT 9SM OVC010 M06/M08 A3023 RMK AO1 SLP279
METAR CYNL 250300Z AUTO 28006KT 9SM OVC010 M06/M08 A3023 RMK AO1 SLP283
SPECI CYNL 250219Z AUTO 28010KT 9SM BKN011 BKN072 M06/M09 A3024 RMK AO1 SLP284
SPECI CYNL 250203Z AUTO 28008KT 9SM SCT012 OVC072 M06/M09 A3024 RMK AO1 SLP284
METAR CYNL 250200Z AUTO 28007KT 9SM BKN012 OVC072 M06/M09 A3024 RMK AO1 SLP284
METAR CYNL 250100Z AUTO 28008KT 9SM BKN012 OVC056 M06/M09 A3024 RMK AO1 SLP286
METAR CYNL 250000Z AUTO 28010KT 9SM OVC014 M06/M09 A3025 RMK AO1 SLP288
SPECI CYNL 242301Z AUTO 27006KT 6SM BKN014 OVC020 M06/M08 A3024 RMK AO1 SLP284
METAR CYNL 242300Z AUTO 27006KT 6SM BKN015 OVC021 M06/M08 A3024 RMK AO1 SLP284
SPECI CYNL 242256Z AUTO 26007KT 3SM BKN015 OVC020 M06/M08 A3024 RMK AO1 SLP285
SPECI CYNL 242255Z AUTO 27006KT 2 1/2SM BKN015 OVC020 M06/M08 A3024 RMK AO1 SLP285
SPECI CYNL 242254Z AUTO 27006KT 3SM BKN015 OVC020 M06/M08 A3024 RMK AO1 SLP285
SPECI CYNL 242253Z AUTO 27006KT 2 1/2SM BKN016 OVC021 M06/M08 A3024 RMK AO1 SLP285
SPECI CYNL 242245Z AUTO 27008KT 3SM FEW011 OVC017 M06/M08 A3024 RMK AO1 SLP286
SPECI CYNL 242239Z AUTO 27007KT 2SM SCT015 OVC020 M06/M08 A3024 RMK AO1 SLP285
SPECI CYNL 242234Z AUTO 26008KT 1 3/4SM VV018 M06/M08 A3024 RMK AO1 SLP285
SPECI CYNL 242232Z AUTO 27006KT 2SM VV019 M06/M08 A3024 RMK AO1 SLP285
SPECI CYNL 242228Z AUTO 26007KT 1 3/4SM VV018 M06/M08 A3024 RMK AO1 SLP286
SPECI CYNL 242227Z AUTO 27009KT 2SM VV017 M06/M08 A3024 RMK AO1 SLP286
SPECI CYNL 242220Z AUTO 27009KT 1 1/2SM VV019 M05/M08 A3024 RMK AO1 SLP285
SPECI CYNL 242218Z AUTO 26007KT 2 1/2SM FEW010 SCT013 BKN018 M05/M08 A3024 RMK AO1 SLP285
SPECI CYNL 242210Z AUTO 27008G16KT 3SM FEW010 SCT013 BKN016 M05/M08 A3024 RMK AO1 SLP286
SPECI CYNL 242208Z AUTO 27009G16KT 2SM VV013 M05/M08 A3024 RMK AO1 SLP286
SPECI CYNL 242207Z AUTO 27008G16KT 1 1/2SM VV013 M05/M08 A3024 RMK AO1 SLP286
METAR CYNL 242200Z AUTO 27007G20KT 1 1/4SM VV013 M05/M08 A3024 RMK AO1 SLP286
SPECI CYNL 242156Z AUTO 27010G20KT 1 1/4SM VV014 M05/M09 A3024 RMK AO1 SLP286
SPECI CYNL 242155Z AUTO 28015G20KT 1 1/4SM VV016 M05/M09 A3024 RMK AO1 SLP287
SPECI CYNL 242152Z AUTO 28012G17KT 1 1/2SM FEW011 BKN016 BKN023 M05/M09 A3024 RMK AO1 SLP286
SPECI CYNL 242151Z AUTO 27011G17KT 2SM FEW011 BKN016 BKN023 M05/M09 A3024 RMK AO1 SLP286
SPECI CYNL 242143Z AUTO 27008G15KT 4SM FEW011 SCT016 BKN021 M05/M08 A3024 RMK AO1 SLP286
SPECI CYNL 242141Z AUTO 27007G15KT 2SM VV015 M05/M08 A3024 RMK AO1 SLP286
SPECI CYNL 242139Z AUTO 27008G15KT 1 3/4SM VV015 M05/M08 A3024 RMK AO1 SLP286
SPECI CYNL 242138Z AUTO 27009G15KT 2SM VV017 M05/M08 A3024 RMK AO1 SLP286
SPECI CYNL 242134Z AUTO 26009G17KT 4SM VV023 M05/M08 A3024 RMK AO1 SLP286
SPECI CYNL 242132Z AUTO 26007G17KT 5SM VV029 M05/M09 A3024 RMK AO1 SLP286
SPECI CYNL 242125Z AUTO 27010G20KT 9SM VV030 M05/M09 A3024 RMK AO1 SLP286
SPECI CYNL 242122Z AUTO 28011G20KT 6SM VV025 M05/M09 A3024 RMK AO1 SLP286
SPECI CYNL 242113Z AUTO 28009G20KT 5SM VV024 M05/M09 A3025 RMK AO1 SLP287
SPECI CYNL 242109Z AUTO 28014G20KT 4SM VV025 M05/M09 A3025 RMK AO1 SLP288
SPECI CYNL 242108Z AUTO 28012G20KT 4SM VV024 M05/M09 A3025 RMK AO1 SLP288
METAR CYNL 242100Z AUTO 28011G18KT 4SM OVC025 M05/M09 A3025 RMK AO1 SLP287
SPECI CYNL 242058Z AUTO 28011G19KT 5SM VV024 M05/M09 A3025 RMK AO1 SLP288
SPECI CYNL 242043Z AUTO 27011G19KT 3SM VV025 M05/M09 A3025 RMK AO1 SLP289
SPECI CYNL 242042Z AUTO 27014G19KT 3SM VV024 M05/M09 A3025 RMK AO1 SLP289
SPECI CYNL 242039Z AUTO 27007G19KT 2 1/2SM VV024 M05/M08 A3025 RMK AO1 SLP288
SPECI CYNL 242037Z AUTO 28013G19KT 1 3/4SM VV023 M05/M09 A3025 RMK AO1 SLP290
SPECI CYNL 242036Z AUTO 29013G19KT 2 1/2SM VV023 M05/M09 A3025 RMK AO1 SLP289
SPECI CYNL 242027Z AUTO 28010G22KT 3SM VV023 M05/M09 A3025 RMK AO1 SLP289
SPECI CYNL 242016Z AUTO 28013G20KT 2 1/2SM VV021 M05/M09 A3026 RMK AO1 SLP290
SPECI CYNL 242005Z AUTO 27013KT 3SM BKN019 OVC026 M05/M09 A3026 RMK AO1 SLP290
SPECI CYNL 242001Z AUTO 27010G18KT 8SM SCT019 BKN026 M04/M09 A3026 RMK AO1 SLP290
METAR CYNL 242000Z AUTO 27009G20KT 9SM BKN019 BKN026 M05/M09 A3026 RMK AO1 SLP290
SPECI CYNL 241957Z AUTO 27008G20KT 7SM SCT018 BKN025 M05/M09 A3026 RMK AO1 SLP289
SPECI CYNL 241912Z AUTO 28011G18KT 5SM FEW007 BKN016 OVC024 M05/M08 A3027 RMK AO1 SLP295
SPECI CYNL 241906Z AUTO 27011G16KT 4SM FEW007 BKN013 BKN019 M05/M08 A3027 RMK AO1 SLP295
METAR CYNL 241900Z AUTO 27008KT 4SM FEW007 SCT013 BKN019 M05/M08 A3027 RMK AO1 SLP294
SPECI CYNL 241849Z AUTO 27009KT 5SM FEW007 SCT018 BKN023 M05/M08 A3027 RMK AO1 SLP295
SPECI CYNL 241848Z AUTO 27010KT 5SM FEW009 SCT018 OVC025 M05/M08 A3027 RMK AO1 SLP295
SPECI CYNL 241840Z AUTO 26008KT 5SM FEW009 SCT014 BKN020 M05/M08 A3027 RMK AO1 SLP296
SPECI CYNL 241832Z AUTO 26008KT 3SM VV021 M05/M08 A3028 RMK AO1 SLP296
SPECI CYNL 241829Z AUTO 27008KT 2 1/2SM SCT015 BKN021 BKN028 M05/M08 A3028 RMK AO1 SLP297
SPECI CYNL 241823Z AUTO 26006KT 9SM BKN015 BKN030 M05/M08 A3028 RMK AO1 SLP297
SPECI CYNL 241818Z AUTO 26008G16KT 9SM BKN014 BKN019 M05/M08 A3028 RMK AO1 SLP298
SPECI CYNL 241817Z AUTO 26008G16KT 9SM BKN015 BKN019 M05/M08 A3028 RMK AO1 SLP298
METAR CYNL 241800Z AUTO 26008KT 9SM BKN014 M05/M08 A3029 RMK AO1 SLP300
SPECI CYNL 241759Z AUTO 26007KT 9SM BKN014 M05/M08 A3029 RMK AO1 SLP300
SPECI CYNL 241756Z AUTO 26007KT 9SM BKN015 M05/M08 A3029 RMK AO1 SLP300
SPECI CYNL 241749Z AUTO 26008KT 9SM BKN014 BKN050 M05/M08 A3029 RMK AO1 SLP301
SPECI CYNL 241744Z AUTO 27008KT 9SM SCT015 BKN020 BKN050 M05/M09 A3029 RMK AO1 SLP301
METAR CYNL 241700Z AUTO 27005KT 9SM FEW014 BKN068 M06/M09 A3030 RMK AO1 SLP305
SPECI CYNL 241638Z AUTO 27009KT 9SM FEW008 SCT015 BKN070 M06/M09 A3030 RMK AO1 SLP307
SPECI CYNL 241630Z AUTO 27007KT 9SM SCT008 BKN022 M06/M09 A3030 RMK AO1 SLP307
SPECI CYNL 241625Z AUTO 27007KT 8SM VV009 M06/M09 A3030 RMK AO1 SLP307
SPECI CYNL 241621Z AUTO 27007KT 9SM VV013 M06/M09 A3030 RMK AO1 SLP308
SPECI CYNL 241602Z AUTO 27006KT 4SM FEW009 SCT014 BKN024 M07/M09 A3031 RMK AO1 SLP309
METAR CYNL 241600Z AUTO 28008KT 5SM SCT009 BKN025 M07/M09 A3031 RMK AO1 SLP309
SPECI CYNL 241555Z AUTO 28009KT 8SM SCT009 BKN023 M07/M09 A3031 RMK AO1 SLP309
SPECI CYNL 241550Z AUTO 27005KT 9SM SCT009 BKN012 M07/M09 A3031 RMK AO1 SLP309
SPECI CYNL 241544Z AUTO 27007KT 9SM BKN009 M07/M09 A3031 RMK AO1 SLP309
SPECI CYNL 241543Z AUTO 27007KT 9SM SCT009 BKN011 M07/M09 A3031 RMK AO1 SLP309
SPECI CYNL 241529Z AUTO 28006KT 9SM BKN009 OVC058 M07/M09 A3031 RMK AO1 SLP309
SPECI CYNL 241515Z AUTO 29008KT 9SM BKN010 BKN012 OVC058 M07/M09 A3031 RMK AO1 SLP309
SPECI CYNL 241511Z AUTO 28006KT 9SM BKN009 BKN012 OVC058 M07/M09 A3031 RMK AO1 SLP309
METAR CYNL 241500Z AUTO 29007KT 9SM BKN010 BKN048 M07/M09 A3031 RMK AO1 SLP310
SPECI CYNL 241447Z AUTO 28005KT 9SM BKN011 BKN048 M07/M09 A3030 RMK AO1 SLP308
SPECI CYNL 241445Z AUTO 28007KT 9SM SCT011 BKN015 BKN066 M07/M09 A3030 RMK AO1 SLP308
SPECI CYNL 241444Z AUTO 28006KT 9SM BKN012 BKN066 M07/M09 A3030 RMK AO1 SLP308
SPECI CYNL 241435Z AUTO 29006KT 9SM SCT011 BKN019 BKN026 M07/M09 A3030 RMK AO1 SLP308
SPECI CYNL 241428Z AUTO 28006KT 9SM BKN012 BKN019 OVC026 M07/M09 A3030 RMK AO1 SLP308
SPECI CYNL 241409Z AUTO 28007KT 4SM SCT011 BKN015 OVC019 M07/M09 A3030 RMK AO1 SLP307
SPECI CYNL 241404Z AUTO 28008KT 4SM BKN011 BKN016 OVC022 M07/M09 A3030 RMK AO1 SLP308
METAR CYNL 241400Z AUTO 29006KT 4SM VV017 M07/M09 A3030 RMK AO1 SLP307
SPECI CYNL 241356Z AUTO 29006KT 3SM VV017 M07/M09 A3030 RMK AO1 SLP307
SPECI CYNL 241355Z AUTO 28007KT 3SM SCT010 BKN013 BKN018 M07/M09 A3030 RMK AO1 SLP307
SPECI CYNL 241354Z AUTO 28008KT 3SM SCT011 BKN015 M07/M09 A3030 RMK AO1 SLP307
SPECI CYNL 241344Z AUTO 29010KT 5SM SCT011 BKN014 M07/M10 A3030 RMK AO1 SLP308
SPECI CYNL 241340Z AUTO 29007KT 7SM SCT011 BKN025 M07/M10 A3030 RMK AO1 SLP307
SPECI CYNL 241339Z AUTO 28008KT 6SM SCT011 BKN024 M07/M10 A3030 RMK AO1 SLP308
SPECI CYNL 241336Z AUTO 28008KT 8SM SCT011 BKN025 M07/M10 A3030 RMK AO1 SLP307
SPECI CYNL 241334Z AUTO 28007KT 9SM FEW011 SCT020 BKN041 M07/M10 A3030 RMK AO1 SLP307
SPECI CYNL 241329Z AUTO 29009G16KT 9SM FEW012 SCT020 BKN025 M07/M10 A3030 RMK AO1 SLP308
SPECI CYNL 241326Z AUTO 29008G16KT 9SM FEW012 SCT020 BKN066 M07/M10 A3030 RMK AO1 SLP307
SPECI CYNL 241319Z AUTO 29009KT 9SM FEW013 BKN023 M07/M10 A3030 RMK AO1 SLP307
SPECI CYNL 241317Z AUTO 29008KT 5SM VV025 M07/M10 A3030 RMK AO1 SLP307
METAR CYNL 241300Z AUTO 29009KT 4SM VV016 M07/M10 A3030 RMK AO1 SLP307
METAR CYNL 241200Z AUTO 29008KT 9SM OVC034 M07/M10 A3031 RMK AO1 SLP309
METAR CYNL 241100Z AUTO 30007KT 9SM OVC035 M08/M11 A3031 RMK AO1 SLP310
METAR CYNL 241000Z AUTO 28006KT 9SM OVC034 M08/M11 A3031 RMK AO1 SLP311
METAR CYNL 240900Z AUTO 27005KT 9SM OVC033 M08/M11 A3032 RMK AO1 SLP312
METAR CYNL 240800Z AUTO 28004KT 9SM OVC031 M08/M11 A3032 RMK AO1 SLP311
METAR CYNL 240700Z AUTO 31005KT 9SM OVC032 M07/M11 A3033 RMK AO1 SLP315
METAR CYNL 240600Z AUTO 29004KT 9SM OVC033 M07/M10 A3033 RMK AO1 SLP315
METAR CYNL 240500Z AUTO 29004KT 9SM OVC032 M07/M10 A3032 RMK AO1 SLP313
METAR CYNL 240400Z AUTO 31005KT 9SM OVC035 M07/M10 A3032 RMK AO1 SLP312
METAR CYNL 240300Z AUTO 32005KT 9SM BKN035 M07/M10 A3031 RMK AO1 SLP311
METAR CYNL 240200Z AUTO 30006KT 9SM OVC036 M07/M10 A3031 RMK AO1 SLP312
METAR CYNL 240100Z AUTO 30004KT 9SM OVC036 M07/M10 A3031 RMK AO1 SLP313
METAR CYNL 240000Z AUTO 32005KT 9SM OVC039 M07/M11 A3031 RMK AO1 SLP314
METAR CYNL 232300Z AUTO 33004KT 9SM FEW021 OVC039 M07/M10 A3032 RMK AO1 SLP316
SPECI CYNL 232240Z AUTO 33004KT 9SM FEW009 SCT021 BKN041 M07/M10 A3032 RMK AO1 SLP316
SPECI CYNL 232237Z AUTO 33004KT 9SM FEW009 SCT018 BKN026 M07/M10 A3032 RMK AO1 SLP316
SPECI CYNL 232235Z AUTO 34005KT 8SM FEW009 BKN018 BKN039 M07/M10 A3032 RMK AO1 SLP316
SPECI CYNL 232234Z AUTO 33005KT 5SM VV013 M07/M10 A3032 RMK AO1 SLP316
SPECI CYNL 232233Z AUTO 33004KT 1 3/4SM VV014 M07/M10 A3032 RMK AO1 SLP316
SPECI CYNL 232232Z AUTO 33004KT 3/4SM VV015 M07/M10 A3032 RMK AO1 SLP316
SPECI CYNL 232231Z AUTO 34004KT 5/8SM VV014 M07/M10 A3032 RMK AO1 SLP316
SPECI CYNL 232229Z AUTO 35004KT 2 1/2SM VV018 M07/M10 A3032 RMK AO1 SLP316
SPECI CYNL 232227Z AUTO 35006KT 5SM VV020 M07/M10 A3032 RMK AO1 SLP315
SPECI CYNL 232219Z AUTO 35009KT 9SM FEW009 SCT020 BKN027 M07/M11 A3031 RMK AO1 SLP315
METAR CYNL 232200Z AUTO 35006KT 9SM FEW009 BKN035 M06/M10 A3031 RMK AO1 SLP313
SPECI CYNL 232157Z AUTO 35006KT 5SM FEW009 BKN038 M06/M11 A3031 RMK AO1 SLP314
SPECI CYNL 232156Z AUTO 35005KT 1 1/2SM FEW009 BKN038 M06/M10 A3031 RMK AO1 SLP313
SPECI CYNL 232155Z AUTO 00005KT 1SM FEW009 BKN037 M06/M10 A3031 RMK AO1 SLP313
SPECI CYNL 232154Z AUTO 01006KT 3/4SM FEW009 BKN037 M06/M10 A3031 RMK AO1 SLP313
SPECI CYNL 232153Z AUTO 01007KT 1 1/4SM FEW017 BKN037 M06/M11 A3031 RMK AO1 SLP313
SPECI CYNL 232116Z AUTO 35008G18KT 3SM FEW006 SCT021 BKN036 M06/M11 A3031 RMK AO1 SLP314
SPECI CYNL 232115Z AUTO 00008G18KT 2 1/2SM SCT021 BKN036 M06/M11 A3031 RMK AO1 SLP314
METAR CYNL 232100Z AUTO 32008KT 9SM SCT020 OVC037 M05/M10 A3031 RMK AO1 SLP311
SPECI CYNL 232017Z AUTO 32006KT 9SM FEW011 SCT019 BKN041 M05/M09 A3030 RMK AO1 SLP311
SPECI CYNL 232016Z AUTO 32007KT 9SM FEW011 SCT019 BKN028 M06/M09 A3030 RMK AO1 SLP311
SPECI CYNL 232013Z AUTO 33009KT 3SM VV018 M06/M09 A3030 RMK AO1 SLP311
SPECI CYNL 232011Z AUTO 33008KT 2SM VV019 M05/M09 A3030 RMK AO1 SLP311
SPECI CYNL 232009Z AUTO 33009KT 1 3/4SM FEW016 BKN022 BKN220 M05/M09 A3030 RMK AO1 SLP310
SPECI CYNL 232008Z AUTO 32008KT 2 1/2SM FEW016 SCT022 BKN037 M05/M09 A3030 RMK AO1 SLP311
METAR CYNL 232000Z AUTO 33004KT 9SM FEW008 SCT020 BKN038 M05/M09 A3030 RMK AO1 SLP310
SPECI CYNL 231958Z AUTO 32007KT 6SM FEW008 SCT019 BKN038 M05/M09 A3030 RMK AO1 SLP310
SPECI CYNL 231941Z AUTO 33007KT 9SM FEW012 SCT016 BKN039 M05/M09 A3031 RMK AO1 SLP311
SPECI CYNL 231932Z AUTO 32007KT 5SM FEW009 SCT016 BKN022 M06/M09 A3031 RMK AO1 SLP311
SPECI CYNL 231931Z AUTO 32008KT 5SM FEW009 SCT016 BKN039 M06/M09 A3031 RMK AO1 SLP311
SPECI CYNL 231927Z AUTO 32008KT 9SM FEW015 SCT020 BKN039 M06/M10 A3030 RMK AO1 SLP311
SPECI CYNL 231905Z AUTO 33007KT 5SM FEW008 SCT013 BKN017 M06/M09 A3030 RMK AO1 SLP311
SPECI CYNL 231901Z AUTO 31006KT 3SM VV019 M06/M09 A3031 RMK AO1 SLP311
METAR CYNL 231900Z AUTO 31005KT 2 1/2SM VV018 M06/M09 A3031 RMK AO1 SLP311
SPECI CYNL 231857Z AUTO 31006KT 2 1/2SM VV016 M06/M09 A3030 RMK AO1 SLP311
SPECI CYNL 231852Z AUTO 32007KT 3SM SCT014 BKN017 OVC022 M06/M09 A3030 RMK AO1 SLP311
SPECI CYNL 231842Z AUTO 32006KT 5SM FEW008 BKN014 OVC021 M06/M09 A3030 RMK AO1 SLP311
METAR CYNL 231800Z AUTO 31008KT 9SM BKN012 BKN042 M06/M09 A3031 RMK AO1 SLP312
METAR CYNL 231700Z AUTO 31009G15KT 9SM OVC010 M07/M09 A3030 RMK AO1 SLP312
SPECI CYNL 231605Z AUTO 32008KT 9SM SCT009 BKN013 OVC024 M07/M09 A3030 RMK AO1 SLP310
METAR CYNL 231600Z AUTO 32008KT 9SM BKN010 BKN014 M07/M09 A3030 RMK AO1 SLP310
SPECI CYNL 231541Z AUTO 31006KT 8SM FEW008 BKN010 M07/M09 A3030 RMK AO1 SLP309
SPECI CYNL 231539Z AUTO 30008KT 8SM BKN009 BKN011 M07/M09 A3030 RMK AO1 SLP309
SPECI CYNL 231532Z AUTO 31007KT 7SM SCT008 BKN010 M07/M10 A3030 RMK AO1 SLP309
SPECI CYNL 231530Z AUTO 30008KT 6SM BKN009 M07/M10 A3030 RMK AO1 SLP309
SPECI CYNL 231518Z AUTO 30006KT 5SM FEW006 BKN010 OVC058 M08/M10 A3030 RMK AO1 SLP309
METAR CYNL 231500Z AUTO 30009KT 6SM BKN009 M08/M10 A3030 RMK AO1 SLP309
SPECI CYNL 231426Z AUTO 30007KT 9SM BKN009 OVC060 M08/M10 A3030 RMK AO1 SLP308
METAR CYNL 231400Z AUTO 28006KT 7SM BKN010 BKN014 OVC024 M09/M11 A3030 RMK AO1 SLP308
SPECI CYNL 231331Z AUTO 29004KT 5SM OVC010 M09/M11 A3031 RMK AO1 SLP309
SPECI CYNL 231329Z AUTO 28005KT 5SM BKN009 OVC011 M09/M11 A3031 RMK AO1 SLP309
SPECI CYNL 231328Z AUTO 28005KT 5SM BKN010 OVC013 M09/M11 A3031 RMK AO1 SLP309
SPECI CYNL 231303Z AUTO 28006KT 3SM BKN008 OVC012 M09/M11 A3031 RMK AO1 SLP310
METAR CYNL 231300Z AUTO 28005KT 2 1/2SM BKN008 OVC012 M09/M11 A3031 RMK AO1 SLP310
SPECI CYNL 231259Z AUTO 28007KT 2 1/2SM BKN008 OVC012 M09/M11 A3031 RMK AO1 SLP311
SPECI CYNL 231209Z AUTO 28007KT 9SM BKN008 OVC058 M10/M12 A3032 RMK AO1 SLP315
SPECI CYNL 231208Z AUTO 27007KT 9SM SCT008 BKN026 OVC058 M10/M12 A3032 RMK AO1 SLP315
METAR CYNL 231200Z AUTO 28006KT 9SM FEW008 SCT026 OVC058 M10/M12 A3032 RMK AO1 SLP314
SPECI CYNL 231153Z AUTO 28005KT 9SM FEW008 OVC056 M10/M12 A3032 RMK AO1 SLP314
METAR CYNL 231100Z AUTO 28007KT 9SM SCT013 BKN060 M10/M12 A3032 RMK AO1 SLP316
METAR CYNL 231000Z AUTO 29006KT 9SM BKN058 M11/M13 A3032 RMK AO1 SLP316
METAR CYNL 230900Z AUTO 30006KT 9SM CLR M11/M13 A3033 RMK AO1 SLP318
SPECI CYNL 230840Z AUTO 29005KT 9SM SCT007 M11/M13 A3033 RMK AO1 SLP318
SPECI CYNL 230833Z AUTO 29006KT 9SM SCT007 BKN011 BKN014 M11/M13 A3033 RMK AO1 SLP318
SPECI CYNL 230823Z AUTO 29006KT 9SM VV009 M11/M13 A3033 RMK AO1 SLP318
SPECI CYNL 230813Z AUTO 29006KT 9SM VV014 M11/M13 A3033 RMK AO1 SLP318
METAR CYNL 230800Z AUTO 29005KT 9SM VV017 M10/M13 A3033 RMK AO1 SLP318
SPECI CYNL 230703Z AUTO 32006KT 9SM BKN022 M11/M13 A3033 RMK AO1 SLP315
METAR CYNL 230700Z AUTO 31005KT 9SM SCT023 M11/M14 A3033 RMK AO1 SLP315
METAR CYNL 230600Z AUTO 31005KT 9SM CLR M11/M14 A3032 RMK AO1 SLP313
METAR CYNL 230500Z AUTO 33009G17KT 9SM FEW011 SCT032 M09/M12 A3032 RMK AO1 SLP313
SPECI CYNL 230449Z AUTO 33009KT 9SM FEW011 SCT024 BKN032 M09/M11 A3032 RMK AO1 SLP312
SPECI CYNL 230420Z AUTO 34008G17KT 4SM VV021 M08/M11 A3031 RMK AO1 SLP309
SPECI CYNL 230411Z AUTO 33007KT 9SM SCT020 BKN032 M08/M10 A3031 RMK AO1 SLP308
SPECI CYNL 230401Z AUTO 33008KT 9SM BKN020 M08/M10 A3031 RMK AO1 SLP307
METAR CYNL 230400Z AUTO 33007KT 9SM SCT020 BKN026 M08/M10 A3031 RMK AO1 SLP307
SPECI CYNL 230353Z AUTO 33007KT 9SM SCT020 BKN030 M07/M10 A3030 RMK AO1 SLP307
SPECI CYNL 230352Z AUTO 32009KT 9SM SCT020 BKN029 M07/M10 A3030 RMK AO1 SLP307
SPECI CYNL 230328Z AUTO 34008KT 9SM FEW009 SCT015 M07/M10 A3030 RMK AO1 SLP306
SPECI CYNL 230316Z AUTO 34011G18KT 6SM VV017 M06/M09 A3030 RMK AO1 SLP306
SPECI CYNL 230315Z AUTO 34012G18KT 2 1/2SM VV016 M06/M09 A3030 RMK AO1 SLP306
SPECI CYNL 230314Z AUTO 33011G18KT 1 1/2SM VV015 M06/M09 A3030 RMK AO1 SLP306
SPECI CYNL 230309Z AUTO 33010G18KT 1SM VV012 M06/M08 A3030 RMK AO1 SLP305
SPECI CYNL 230302Z AUTO 32012G18KT 3/8SM VV014 M06/M08 A3030 RMK AO1 SLP305
SPECI CYNL 230301Z AUTO 32013G18KT 1/2SM VV017 M06/M08 A3030 RMK AO1 SLP305
METAR CYNL 230300Z AUTO 33010G17KT 3/4SM VV017 M06/M08 A3030 RMK AO1 SLP304
SPECI CYNL 230259Z AUTO 32008KT 2SM VV016 M06/M08 A3030 RMK AO1 SLP304
SPECI CYNL 230258Z AUTO 31008KT 3SM VV016 M06/M08 A3030 RMK AO1 SLP304
SPECI CYNL 230257Z AUTO 31009KT 2 1/2SM VV016 M06/M08 A3030 RMK AO1 SLP304
SPECI CYNL 230255Z AUTO 30009KT 1 3/4SM VV015 M06/M08 A3030 RMK AO1 SLP304
SPECI CYNL 230254Z AUTO 30009KT 2 1/2SM VV015 M06/M08 A3030 RMK AO1 SLP304
SPECI CYNL 230250Z AUTO 31008KT 7SM BKN013 BKN023 M05/M08 A3030 RMK AO1 SLP304
SPECI CYNL 230241Z AUTO 31009G16KT 9SM SCT013 BKN017 BKN023 M05/M08 A3030 RMK AO1 SLP304
SPECI CYNL 230234Z AUTO 31009G16KT 9SM BKN012 BKN016 M05/M08 A3030 RMK AO1 SLP304
SPECI CYNL 230231Z AUTO 31008G15KT 9SM SCT012 BKN016 M05/M08 A3030 RMK AO1 SLP304
SPECI CYNL 230210Z AUTO 31008KT 9SM SCT011 BKN013 M05/M08 A3029 RMK AO1 SLP302
SPECI CYNL 230209Z AUTO 31009KT 9SM SCT011 BKN044 M05/M08 A3029 RMK AO1 SLP302
SPECI CYNL 230208Z AUTO 30009KT 9SM BKN011 M05/M07 A3029 RMK AO1 SLP302
SPECI CYNL 230207Z AUTO 30009KT 9SM SCT011 BKN044 M05/M07 A3029 RMK AO1 SLP302
SPECI CYNL 230206Z AUTO 31010KT 9SM BKN011 M05/M08 A3029 RMK AO1 SLP302
METAR CYNL 230200Z AUTO 31009G15KT 9SM SCT010 BKN044 M05/M07 A3029 RMK AO1 SLP302
SPECI CYNL 230155Z AUTO 31011KT 9SM SCT010 BKN043 M05/M07 A3029 RMK AO1 SLP303
SPECI CYNL 230139Z AUTO 31009G16KT 6SM SCT011 BKN014 M05/M07 A3029 RMK AO1 SLP303
SPECI CYNL 230137Z AUTO 30008KT 6SM SCT012 BKN015 M05/M07 A3029 RMK AO1 SLP303
SPECI CYNL 230105Z AUTO 30008G15KT 9SM SCT011 M05/M07 A3029 RMK AO1 SLP302
SPECI CYNL 230102Z AUTO 30008G16KT 8SM SCT011 BKN017 M05/M07 A3029 RMK AO1 SLP302
SPECI CYNL 230101Z AUTO 30009G16KT 7SM SCT011 BKN014 M05/M07 A3029 RMK AO1 SLP302
METAR CYNL 230100Z AUTO 30010G16KT 8SM FEW011 SCT013 BKN017 M05/M07 A3029 RMK AO1 SLP302
SPECI CYNL 230054Z AUTO 31009G16KT 6SM FEW008 SCT013 BKN018 M05/M07 A3029 RMK AO1 SLP302
SPECI CYNL 230053Z AUTO 30007G15KT 5SM FEW008 BKN014 M05/M07 A3029 RMK AO1 SLP302
SPECI CYNL 230052Z AUTO 30008G15KT 6SM FEW008 SCT013 BKN017 M05/M07 A3029 RMK AO1 SLP302
SPECI CYNL 230049Z AUTO 30011KT 5SM FEW007 BKN013 BKN018 M05/M08 A3029 RMK AO1 SLP302
SPECI CYNL 230040Z AUTO 30009G15KT 5SM VV014 M05/M08 A3029 RMK AO1 SLP301
SPECI CYNL 230030Z AUTO 31010G16KT 4SM VV015 M05/M08 A3029 RMK AO1 SLP301
SPECI CYNL 230018Z AUTO 30009G16KT 3SM VV014 M05/M08 A3029 RMK AO1 SLP301
SPECI CYNL 230004Z AUTO 30010G16KT 4SM VV024 M05/M08 A3029 RMK AO1 SLP301
METAR CYNL 230000Z AUTO 30009G16KT 4SM VV025 M05/M08 A3029 RMK AO1 SLP301
SPECI CYNL 222355Z AUTO 30011KT 3SM VV019 M05/M08 A3028 RMK AO1 SLP301
SPECI CYNL 222353Z AUTO 30008G15KT 2SM VV018 M05/M08 A3028 RMK AO1 SLP301
SPECI CYNL 222349Z AUTO 30011G16KT 1 3/4SM VV024 M05/M08 A3028 RMK AO1 SLP301
SPECI CYNL 222348Z AUTO 30010G16KT 2 1/2SM VV026 M05/M08 A3028 RMK AO1 SLP300
SPECI CYNL 222347Z AUTO 30009G16KT 3SM VV028 M05/M08 A3028 RMK AO1 SLP300
SPECI CYNL 222341Z AUTO 30008G15KT 9SM VV030 M05/M08 A3028 RMK AO1 SLP300
SPECI CYNL 222336Z AUTO 30011KT 9SM VV029 M05/M08 A3028 RMK AO1 SLP300
SPECI CYNL 222331Z AUTO 29010KT 7SM VV030 M05/M08 A3028 RMK AO1 SLP300
SPECI CYNL 222330Z AUTO 29010KT 6SM VV029 M05/M08 A3028 RMK AO1 SLP300
SPECI CYNL 222329Z AUTO 30009KT 7SM VV030 M05/M08 A3028 RMK AO1 SLP299
SPECI CYNL 222320Z AUTO 30008G16KT 9SM VV026 M05/M08 A3028 RMK AO1 SLP300
METAR CYNL 222300Z AUTO 29009KT 9SM FEW007 BKN020 M05/M08 A3028 RMK AO1 SLP299
SPECI CYNL 222243Z AUTO 30008G17KT 8SM FEW007 SCT014 BKN019 M05/M08 A3028 RMK AO1 SLP299
SPECI CYNL 222234Z AUTO 30007KT 9SM FEW007 BKN014 M05/M08 A3028 RMK AO1 SLP298
SPECI CYNL 222233Z AUTO 30008KT 9SM FEW007 SCT014 BKN017 M05/M08 A3028 RMK AO1 SLP299
SPECI CYNL 222227Z AUTO 31009G17KT 9SM SCT014 BKN022 M05/M08 A3028 RMK AO1 SLP298
SPECI CYNL 222218Z AUTO 30009G18KT 9SM FEW007 SCT014 M05/M08 A3028 RMK AO1 SLP297
METAR CYNL 222200Z AUTO 30008G16KT 9SM SCT012 M05/M08 A3027 RMK AO1 SLP296
SPECI CYNL 222153Z AUTO 31008G17KT 9SM SCT012 BKN092 M05/M08 A3027 RMK AO1 SLP295
SPECI CYNL 222152Z AUTO 31008G17KT 9SM SCT012 BKN015 M05/M08 A3027 RMK AO1 SLP295
METAR CYNL 222100Z AUTO 30005G15KT 9SM BKN014 OVC100 M04/M08 A3026 RMK AO1 SLP291
SPECI CYNL 222055Z AUTO 30011G16KT 9SM BKN014 M04/M08 A3026 RMK AO1 SLP291
SPECI CYNL 222053Z AUTO 30010G16KT 9SM SCT013 BKN016 M04/M08 A3026 RMK AO1 SLP291
SPECI CYNL 222051Z AUTO 30008G16KT 7SM OVC014 M04/M08 A3026 RMK AO1 SLP290
SPECI CYNL 222001Z AUTO 29011G17KT 9SM BKN015 M03/M08 A3025 RMK AO1 SLP288
METAR CYNL 222000Z AUTO 30011G17KT 9SM SCT015 M03/M08 A3025 RMK AO1 SLP287
SPECI CYNL 221909Z AUTO 32009G19KT 9SM FEW008 SCT013 M03/M08 A3025 RMK AO1 SLP287
METAR CYNL 221900Z AUTO 32012G18KT 9SM FEW013 SCT170 M04/M07 A3025 RMK AO1 SLP288
SPECI CYNL 221828Z AUTO 31011G18KT 9SM FEW006 SCT013 M05/M08 A3025 RMK AO1 SLP288
SPECI CYNL 221827Z AUTO 30010G18KT 8SM FEW006 SCT013 BKN015 M05/M08 A3025 RMK AO1 SLP288
SPECI CYNL 221817Z AUTO 31011G17KT 6SM FEW006 SCT008 BKN013 M05/M08 A3025 RMK AO1 SLP288
SPECI CYNL 221810Z AUTO 31011G18KT 5SM VV009 M05/M08 A3025 RMK AO1 SLP287
METAR CYNL 221800Z AUTO 31008G18KT 6SM FEW007 SCT012 BKN014 M05/M08 A3025 RMK AO1 SLP287
SPECI CYNL 221754Z AUTO 31011G18KT 6SM FEW007 BKN013 BKN021 M05/M08 A3025 RMK AO1 SLP286
SPECI CYNL 221747Z AUTO 31011G17KT 9SM FEW007 SCT011 BKN017 M05/M08 A3024 RMK AO1 SLP286
SPECI CYNL 221728Z AUTO 31009G18KT 6SM VV020 M05/M08 A3024 RMK AO1 SLP284
SPECI CYNL 221710Z AUTO 30012G19KT 5SM BKN011 OVC016 M05/M08 A3024 RMK AO1 SLP283
METAR CYNL 221700Z AUTO 31010G18KT 7SM FEW011 BKN016 OVC023 M05/M08 A3024 RMK AO1 SLP282
METAR CYNL 221600Z AUTO 30011G17KT 4SM VV020 M06/M08 A3022 RMK AO1 SLP279
SPECI CYNL 221548Z AUTO 30010G18KT 6SM SCT010 OVC015 M06/M09 A3022 RMK AO1 SLP279
SPECI CYNL 221547Z AUTO 30009G16KT 5SM SCT010 BKN013 OVC016 M06/M09 A3022 RMK AO1 SLP279
SPECI CYNL 221545Z AUTO 30011G16KT 6SM VV015 M06/M09 A3022 RMK AO1 SLP279
SPECI CYNL 221517Z AUTO 29009KT 9SM BKN010 BKN015 OVC027 M07/M09 A3021 RMK AO1 SLP276
SPECI CYNL 221511Z AUTO 30007KT 9SM SCT010 BKN015 OVC027 M07/M09 A3021 RMK AO1 SLP276
SPECI CYNL 221510Z AUTO 29007KT 9SM SCT009 BKN013 BKN017 M07/M09 A3021 RMK AO1 SLP276
SPECI CYNL 221508Z AUTO 29009KT 9SM FEW009 SCT012 BKN016 M07/M09 A3021 RMK AO1 SLP276
METAR CYNL 221500Z AUTO 30010KT 6SM SCT008 BKN011 OVC027 M07/M09 A3021 RMK AO1 SLP275
SPECI CYNL 221455Z AUTO 30008KT 5SM SCT008 BKN011 OVC027 M07/M09 A3021 RMK AO1 SLP274
METAR CYNL 221400Z AUTO 30009G16KT 9SM BKN008 OVC080 M07/M09 A3020 RMK AO1 SLP271
SPECI CYNL 221305Z AUTO 30008KT 5SM BKN009 M08/M10 A3019 RMK AO1 SLP271
SPECI CYNL 221301Z AUTO 30007KT 9SM SCT010 BKN018 M08/M10 A3019 RMK AO1 SLP271
METAR CYNL 221300Z AUTO 30007KT 9SM BKN010 M08/M10 A3020 RMK AO1 SLP271
SPECI CYNL 221251Z AUTO 30009KT 9SM SCT010 BKN012 M08/M10 A3020 RMK AO1 SLP270
SPECI CYNL 221237Z AUTO 29006KT 9SM SCT009 BKN092 M08/M09 A3020 RMK AO1 SLP270
SPECI CYNL 221232Z AUTO 30008KT 5SM SCT009 BKN012 M08/M09 A3019 RMK AO1 SLP270
SPECI CYNL 221231Z AUTO 30008KT 5SM BKN009 M08/M09 A3019 RMK AO1 SLP270
SPECI CYNL 221228Z AUTO 29007KT 7SM SCT009 BKN012 M08/M10 A3019 RMK AO1 SLP269
SPECI CYNL 221224Z AUTO 29006KT 6SM SCT008 BKN094 M08/M10 A3019 RMK AO1 SLP269
SPECI CYNL 221222Z AUTO 29007KT 8SM BKN008 M08/M10 A3019 RMK AO1 SLP269
SPECI CYNL 221220Z AUTO 29006KT 8SM SCT009 BKN094 M08/M10 A3019 RMK AO1 SLP269
METAR CYNL 221200Z AUTO 29008KT 9SM BKN009 M08/M10 A3019 RMK AO1 SLP268
SPECI CYNL 221127Z AUTO 29005KT 9SM BKN009 M08/M10 A3019 RMK AO1 SLP268
SPECI CYNL 221126Z AUTO 29004KT 9SM BKN010 M08/M10 A3019 RMK AO1 SLP268
METAR CYNL 221100Z AUTO 28004KT 8SM SCT007 M08/M10 A3019 RMK AO1 SLP266
SPECI CYNL 221051Z AUTO 28005KT 4SM SCT007 M08/M10 A3019 RMK AO1 SLP265
SPECI CYNL 221041Z AUTO 28006KT 5SM VV009 M08/M10 A3018 RMK AO1 SLP264
SPECI CYNL 221016Z AUTO 28007KT 9SM FEW009 SCT054 BKN072 M08/M10 A3018 RMK AO1 SLP264
METAR CYNL 221000Z AUTO 29006KT 5SM FEW016 OVC070 M08/M10 A3018 RMK AO1 SLP264
METAR CYNL 220900Z AUTO 30005KT 9SM SCT015 BKN076 M08/M10 A3018 RMK AO1 SLP262
METAR CYNL 220800Z AUTO 30007KT 9SM OVC016 M07/M10 A3017 RMK AO1 SLP259
SPECI CYNL 220739Z AUTO 29007KT 9SM BKN016 M08/M10 A3017 RMK AO1 SLP259
METAR CYNL 220700Z AUTO 29005KT 9SM FEW086 M08/M10 A3017 RMK AO1 SLP257
SPECI CYNL 220633Z AUTO 29005KT 9SM SCT009 BKN086 M07/M08 A3017 RMK AO1 SLP256
SPECI CYNL 220609Z AUTO 28005KT 9SM BKN009 M07/M08 A3016 RMK AO1 SLP254
SPECI CYNL 220605Z AUTO 29005KT 9SM SCT009 BKN012 M07/M08 A3016 RMK AO1 SLP254
SPECI CYNL 220604Z AUTO 30006KT 9SM SCT009 BKN025 M07/M08 A3016 RMK AO1 SLP254
METAR CYNL 220600Z AUTO 29005KT 9SM FEW009 SCT012 BKN024 M07/M08 A3016 RMK AO1 SLP254
SPECI CYNL 220548Z AUTO 28004KT 9SM FEW008 SCT013 BKN031 M06/M08 A3016 RMK AO1 SLP253
SPECI CYNL 220546Z AUTO 28006KT 9SM FEW009 BKN013 M06/M08 A3016 RMK AO1 SLP253
SPECI CYNL 220545Z AUTO 28006KT 9SM FEW009 SCT013 BKN025 M06/M08 A3016 RMK AO1 SLP253
SPECI CYNL 220542Z AUTO 28006KT 4SM FEW006 BKN011 OVC033 M06/M08 A3016 RMK AO1 SLP253
SPECI CYNL 220510Z AUTO 28005KT 9SM BKN011 BKN022 OVC074 M06/M08 A3016 RMK AO1 SLP253
SPECI CYNL 220506Z AUTO 29004KT 9SM SCT011 BKN015 BKN021 M06/M08 A3016 RMK AO1 SLP253
METAR CYNL 220500Z AUTO 28005KT 5SM FEW006 BKN012 BKN040 M06/M08 A3016 RMK AO1 SLP252
SPECI CYNL 220455Z AUTO 27005KT 6SM FEW007 BKN011 BKN021 M06/M08 A3016 RMK AO1 SLP252
SPECI CYNL 220451Z AUTO 28005KT 4SM VV013 M06/M08 A3016 RMK AO1 SLP253
SPECI CYNL 220450Z AUTO 29006KT 3SM VV015 M06/M08 A3016 RMK AO1 SLP253
SPECI CYNL 220448Z AUTO 28006KT 2 1/2SM VV016 M06/M08 A3016 RMK AO1 SLP253
SPECI CYNL 220444Z AUTO 28005KT 3SM VV015 M06/M08 A3016 RMK AO1 SLP253
SPECI CYNL 220443Z AUTO 28006KT 3SM VV014 M06/M08 A3016 RMK AO1 SLP253
SPECI CYNL 220441Z AUTO 28006KT 2SM VV011 M06/M08 A3016 RMK AO1 SLP253
SPECI CYNL 220440Z AUTO 28006KT 1 1/2SM VV010 M06/M08 A3016 RMK AO1 SLP253
SPECI CYNL 220439Z AUTO 28007KT 1SM VV009 M06/M08 A3016 RMK AO1 SLP252
SPECI CYNL 220438Z AUTO 28006KT 3/4SM VV008 M06/M08 A3016 RMK AO1 SLP252
SPECI CYNL 220433Z AUTO 28007KT 1/4SM VV008 M06/M08 A3016 RMK AO1 SLP253
SPECI CYNL 220430Z AUTO 28006KT 1/2SM VV011 M06/M08 A3016 RMK AO1 SLP253
SPECI CYNL 220425Z AUTO 29006KT 2 1/2SM VV011 M06/M08 A3016 RMK AO1 SLP253
SPECI CYNL 220424Z AUTO 29006KT 3SM VV013 M06/M08 A3016 RMK AO1 SLP253
SPECI CYNL 220421Z AUTO 29005KT 2 1/2SM VV021 M06/M08 A3016 RMK AO1 SLP252
SPECI CYNL 220420Z AUTO 29005KT 3SM VV023 M06/M08 A3016 RMK AO1 SLP252
SPECI CYNL 220417Z AUTO 29005KT 5SM VV029 M06/M08 A3016 RMK AO1 SLP252
SPECI CYNL 220415Z AUTO 29006KT 5SM VV031 M06/M08 A3016 RMK AO1 SLP252
SPECI CYNL 220413Z AUTO 29004KT 7SM VV028 M06/M08 A3016 RMK AO1 SLP252
METAR CYNL 220400Z AUTO 29007KT 9SM BKN072 M06/M09 A3015 RMK AO1 SLP252
METAR CYNL 220300Z AUTO 29005KT 9SM OVC084 M05/M08 A3015 RMK AO1 SLP250
METAR CYNL 220200Z AUTO 27004KT 9SM FEW022 BKN086 M06/M09 A3014 RMK AO1 SLP251
SPECI CYNL 220108Z AUTO 24003KT 9SM SCT022 BKN088 M06/M09 A3014 RMK AO1 SLP250
METAR CYNL 220100Z AUTO 24003KT 9SM BKN022 M06/M09 A3014 RMK AO1 SLP250
SPECI CYNL 220045Z AUTO 24002KT 9SM FEW016 BKN021 M06/M09 A3014 RMK AO1 SLP249
METAR CYNL 220000Z AUTO 29003KT 9SM SCT088 M05/M09 A3014 RMK AO1 SLP247
METAR CYNL 212300Z AUTO 30004KT 9SM SCT018 BKN088 M04/M07 A3012 RMK AO1 SLP242
SPECI CYNL 212254Z AUTO 29005KT 9SM SCT018 BKN088 M04/M07 A3012 RMK AO1 SLP242
SPECI CYNL 212247Z AUTO 30005KT 9SM BKN018 M04/M08 A3012 RMK AO1 SLP241
SPECI CYNL 212237Z AUTO 32004KT 9SM SCT018 BKN088 M04/M08 A3012 RMK AO1 SLP240
METAR CYNL 212200Z AUTO 31006KT 9SM BKN018 M04/M08 A3011 RMK AO1 SLP238
METAR CYNL 212100Z AUTO 34004KT 9SM BKN018 M03/M08 A3010 RMK AO1 SLP234
SPECI CYNL 212015Z AUTO 30003KT 9SM SCT015 OVC020 M03/M07 A3010 RMK AO1 SLP232
SPECI CYNL 212013Z AUTO 30004KT 9SM BKN014 OVC020 M03/M07 A3010 RMK AO1 SLP232
SPECI CYNL 212012Z AUTO 30004KT 7SM BKN015 OVC020 M03/M07 A3010 RMK AO1 SLP232
SPECI CYNL 212006Z AUTO 34003KT 6SM FEW009 BKN014 OVC019 M03/M06 A3010 RMK AO1 SLP233
METAR CYNL 212000Z AUTO 34003KT 7SM FEW008 BKN015 OVC019 M03/M07 A3010 RMK AO1 SLP233
SPECI CYNL 211942Z AUTO 31004KT 4SM SCT009 OVC017 M03/M07 A3010 RMK AO1 SLP232
SPECI CYNL 211941Z AUTO 32004KT 3SM VV010 M03/M07 A3010 RMK AO1 SLP232
SPECI CYNL 211940Z AUTO 32004KT 3SM VV009 M03/M07 A3010 RMK AO1 SLP232
SPECI CYNL 211938Z AUTO 33003KT 4SM VV010 M03/M07 A3010 RMK AO1 SLP232
SPECI CYNL 211937Z AUTO 32003KT 4SM VV009 M03/M07 A3010 RMK AO1 SLP232
SPECI CYNL 211933Z AUTO 34005KT 3SM VV014 M03/M07 A3010 RMK AO1 SLP232
SPECI CYNL 211931Z AUTO 34004KT 2 1/2SM VV018 M03/M07 A3010 RMK AO1 SLP232
SPECI CYNL 211926Z AUTO 34004KT 9SM VV015 M03/M07 A3010 RMK AO1 SLP232
SPECI CYNL 211922Z AUTO 33005KT 9SM VV011 M03/M07 A3010 RMK AO1 SLP232
SPECI CYNL 211918Z AUTO 32004KT 5SM FEW009 OVC017 M03/M07 A3010 RMK AO1 SLP232
SPECI CYNL 211915Z AUTO 31004KT 3SM SCT013 BKN018 OVC026 M03/M07 A3010 RMK AO1 SLP232
SPECI CYNL 211913Z AUTO 31005KT 2 1/2SM BKN013 BKN019 OVC026 M03/M07 A3010 RMK AO1 SLP232
SPECI CYNL 211904Z AUTO 33003KT 7SM SCT012 BKN017 BKN027 M03/M07 A3010 RMK AO1 SLP231
METAR CYNL 211900Z AUTO 32006KT 3SM BKN012 M03/M07 A3010 RMK AO1 SLP231
SPECI CYNL 211847Z AUTO 31003KT 9SM BKN013 M03/M07 A3009 RMK AO1 SLP230
SPECI CYNL 211840Z AUTO 35005KT 9SM SCT013 M03/M07 A3009 RMK AO1 SLP230
SPECI CYNL 211837Z AUTO 33003KT 9SM BKN012 M03/M07 A3009 RMK AO1 SLP229
SPECI CYNL 211835Z AUTO 33004KT 9SM FEW009 SCT012 BKN015 M03/M07 A3009 RMK AO1 SLP229
SPECI CYNL 211830Z AUTO 33004KT 9SM FEW009 BKN012 M04/M07 A3009 RMK AO1 SLP229
SPECI CYNL 211829Z AUTO 34004KT 9SM FEW009 SCT012 BKN015 M04/M07 A3009 RMK AO1 SLP230
SPECI CYNL 211825Z AUTO 35006KT 9SM SCT012 BKN015 M04/M07 A3009 RMK AO1 SLP230
SPECI CYNL 211818Z AUTO 35007KT 9SM SCT011 M04/M07 A3009 RMK AO1 SLP229
SPECI CYNL 211817Z AUTO 00005KT 9SM SCT011 BKN015 M04/M07 A3009 RMK AO1 SLP229
SPECI CYNL 211816Z AUTO 35004KT 9SM BKN011 M03/M07 A3009 RMK AO1 SLP229
SPECI CYNL 211815Z AUTO 35004KT 9SM SCT011 BKN015 M03/M07 A3009 RMK AO1 SLP229
SPECI CYNL 211814Z AUTO 34003KT 9SM SCT011 BKN013 M03/M06 A3009 RMK AO1 SLP229
SPECI CYNL 211803Z AUTO 32004KT 8SM SCT010 M04/M06 A3009 RMK AO1 SLP229
SPECI CYNL 211802Z AUTO 34004KT 7SM BKN010 M04/M06 A3009 RMK AO1 SLP229
METAR CYNL 211800Z AUTO 00005KT 8SM SCT010 M04/M07 A3009 RMK AO1 SLP229
SPECI CYNL 211752Z AUTO 35004KT 7SM FEW005 SCT010 M04/M06 A3009 RMK AO1 SLP228
SPECI CYNL 211722Z AUTO 35004KT 9SM SCT007 BKN010 BKN013 M04/M07 A3008 RMK AO1 SLP227
SPECI CYNL 211713Z AUTO 34005KT 5SM BKN009 BKN013 M04/M06 A3008 RMK AO1 SLP227
METAR CYNL 211700Z AUTO 33002KT 9SM SCT009 BKN013 BKN020 M04/M06 A3008 RMK AO1 SLP227
SPECI CYNL 211659Z AUTO 34003KT 8SM BKN009 BKN013 M04/M06 A3008 RMK AO1 SLP226
SPECI CYNL 211639Z AUTO 35003KT 3SM VV014 M05/M06 A3008 RMK AO1 SLP226
SPECI CYNL 211634Z AUTO 35005KT 2 1/2SM VV010 M05/M07 A3008 RMK AO1 SLP226
SPECI CYNL 211626Z AUTO 00004KT 4SM VV014 M05/M07 A3008 RMK AO1 SLP226
SPECI CYNL 211622Z AUTO 35003KT 7SM VV015 M05/M07 A3008 RMK AO1 SLP225
SPECI CYNL 211619Z AUTO 35004KT 7SM VV013 M05/M07 A3008 RMK AO1 SLP225
METAR CYNL 211600Z AUTO 35002KT 9SM FEW007 SCT022 M05/M07 A3007 RMK AO1 SLP225
SPECI CYNL 211555Z AUTO 35002KT 9SM FEW007 SCT023 M05/M07 A3007 RMK AO1 SLP225
SPECI CYNL 211554Z AUTO 34003KT 9SM FEW007 SCT013 BKN029 M05/M07 A3007 RMK AO1 SLP225
SPECI CYNL 211549Z AUTO 34003KT 9SM SCT008 BKN023 BKN029 M05/M07 A3007 RMK AO1 SLP225
SPECI CYNL 211548Z AUTO 34002KT 8SM SCT008 BKN013 BKN023 M05/M07 A3007 RMK AO1 SLP225
SPECI CYNL 211544Z AUTO 00000KT 5SM VV009 M05/M07 A3007 RMK AO1 SLP225
SPECI CYNL 211540Z AUTO 00000KT 4SM VV014 M05/M07 A3007 RMK AO1 SLP225
SPECI CYNL 211534Z AUTO 34002KT 5SM VV024 M05/M07 A3007 RMK AO1 SLP224
SPECI CYNL 211533Z AUTO 34002KT 6SM VV025 M05/M07 A3007 RMK AO1 SLP224
SPECI CYNL 211512Z AUTO 35003KT 5SM VV024 M06/M07 A3007 RMK AO1 SLP224
SPECI CYNL 211511Z AUTO 34002KT 5SM VV026 M06/M07 A3007 RMK AO1 SLP224
SPECI CYNL 211504Z AUTO 34002KT 9SM FEW003 SCT008 BKN031 M06/M07 A3007 RMK AO1 SLP224
SPECI CYNL 211501Z AUTO 34003KT 6SM FEW003 SCT008 BKN020 M06/M07 A3007 RMK AO1 SLP224
METAR CYNL 211500Z AUTO 34003KT 6SM VV009 M06/M07 A3007 RMK AO1 SLP224
SPECI CYNL 211458Z AUTO 35003KT 6SM VV014 M06/M07 A3007 RMK AO1 SLP224
SPECI CYNL 211455Z AUTO 35003KT 3SM FEW005 SCT009 BKN020 M06/M07 A3007 RMK AO1 SLP224
SPECI CYNL 211453Z AUTO 35003KT 5SM FEW005 SCT009 BKN029 M06/M07 A3007 RMK AO1 SLP224
SPECI CYNL 211449Z AUTO 34002KT 6SM FEW004 SCT010 BKN032 M06/M07 A3006 RMK AO1 SLP223
SPECI CYNL 211445Z AUTO 33003KT 6SM VV014 M06/M07 A3006 RMK AO1 SLP223
SPECI CYNL 211439Z AUTO 34003KT 5SM FEW007 SCT020 BKN039 M06/M07 A3006 RMK AO1 SLP223
SPECI CYNL 211433Z AUTO 34002KT 3SM VV023 M06/M07 A3006 RMK AO1 SLP223
SPECI CYNL 211430Z AUTO 33002KT 2SM VV023 M06/M07 A3006 RMK AO1 SLP223
SPECI CYNL 211429Z AUTO 33002KT 2 1/2SM VV026 M06/M07 A3006 RMK AO1 SLP223
SPECI CYNL 211428Z AUTO 00000KT 4SM VV028 M06/M07 A3006 RMK AO1 SLP223
SPECI CYNL 211408Z AUTO 32002KT 7SM VV031 M06/M08 A3006 RMK AO1 SLP222
SPECI CYNL 211406Z AUTO 32002KT 9SM VV026 M06/M08 A3006 RMK AO1 SLP222
SPECI CYNL 211402Z AUTO 32002KT 4SM VV018 M06/M08 A3006 RMK AO1 SLP222
METAR CYNL 211400Z AUTO 32002KT 5SM FEW018 M06/M08 A3006 RMK AO1 SLP222
SPECI CYNL 211302Z AUTO 33003KT 9SM SCT004 M06/M07 A3005 RMK AO1 SLP220
METAR CYNL 211300Z AUTO 33003KT 9SM BKN004 M06/M07 A3005 RMK AO1 SLP219
SPECI CYNL 211223Z AUTO 33003KT 9SM VV004 M06/M07 A3005 RMK AO1 SLP217
SPECI CYNL 211213Z AUTO 32003KT 9SM FEW004 SCT025 M06/M07 A3005 RMK AO1 SLP217
SPECI CYNL 211208Z AUTO 32002KT 4SM FEW004 SCT013 BKN025 M06/M07 A3005 RMK AO1 SLP217
SPECI CYNL 211203Z AUTO 31003KT 4SM VV012 M06/M07 A3005 RMK AO1 SLP217
METAR CYNL 211200Z AUTO 32002KT 2SM FEW004 BKN025 M06/M07 A3005 RMK AO1 SLP216
SPECI CYNL 211159Z AUTO 32003KT 3SM FEW004 BKN025 M06/M07 A3005 RMK AO1 SLP216
SPECI CYNL 211136Z AUTO 00000KT 9SM BKN025 M06/M07 A3004 RMK AO1 SLP214
METAR CYNL 211100Z AUTO 30002KT 9SM BKN023 M06/M08 A3004 RMK AO1 SLP213
SPECI CYNL 211012Z AUTO 00000KT 9SM FEW016 BKN020 M07/M08 A3004 RMK AO1 SLP212
SPECI CYNL 211010Z AUTO 00000KT 9SM SCT016 BKN074 M07/M08 A3003 RMK AO1 SLP211
METAR CYNL 211000Z AUTO 00000KT 9SM SCT016 BKN021 OVC072 M07/M08 A3003 RMK AO1 SLP211
SPECI CYNL 210924Z AUTO 00000KT 9SM BKN022 OVC074 M07/M08 A3003 RMK AO1 SLP210
METAR CYNL 210900Z AUTO 00000KT 9SM FEW024 OVC074 M07/M08 A3003 RMK AO1 SLP209
METAR CYNL 210800Z AUTO 33004KT 9SM OVC074 M06/M07 A3003 RMK AO1 SLP208
SPECI CYNL 210717Z AUTO 32003KT 9SM SCT004 OVC074 M06/M07 A3003 RMK AO1 SLP207
METAR CYNL 210700Z AUTO 33003KT 9SM BKN004 OVC074 M06/M07 A3003 RMK AO1 SLP207
SPECI CYNL 210653Z AUTO 32003KT 9SM BKN004 OVC074 M06/M07 A3003 RMK AO1 SLP207
METAR CYNL 210600Z AUTO 31002KT 9SM OVC006 M06/M07 A3002 RMK AO1 SLP205
METAR CYNL 210500Z AUTO 28002KT 9SM OVC007 M06/M07 A3002 RMK AO1 SLP206
METAR CYNL 210400Z AUTO 00000KT 9SM BKN008 OVC068 M06/M08 A3002 RMK AO1 SLP206
SPECI CYNL 210343Z AUTO 00000KT 9SM BKN009 OVC068 M06/M08 A3002 RMK AO1 SLP207
SPECI CYNL 210327Z AUTO 28003KT 9SM FEW009 OVC068 M06/M08 A3002 RMK AO1 SLP206
METAR CYNL 210300Z AUTO 26004KT 9SM OVC068 M06/M09 A3001 RMK AO1 SLP205
METAR CYNL 210200Z AUTO 26003KT 9SM OVC068 M07/M09 A3002 RMK AO1 SLP207
METAR CYNL 210100Z AUTO 24002KT 9SM OVC070 M06/M09 A3001 RMK AO1 SLP206
METAR CYNL 210000Z AUTO 29002KT 9SM OVC070 M05/M08 A3001 RMK AO1 SLP203
METAR CYNL 202300Z AUTO 28004KT 9SM FEW023 OVC072 M04/M08 A3000 RMK AO1 SLP200
METAR CYNL 202200Z AUTO 27004KT 9SM BKN070 M03/M08 A3000 RMK AO1 SLP197
SPECI CYNL 202134Z AUTO 29006KT 9SM SCT021 BKN072 M03/M08 A3000 RMK AO1 SLP196
SPECI CYNL 202129Z AUTO 30004KT 9SM BKN025 BKN072 M03/M08 A3000 RMK AO1 SLP196
SPECI CYNL 202106Z AUTO 30006KT 9SM SCT025 BKN070 M03/M08 A2999 RMK AO1 SLP195
SPECI CYNL 202105Z AUTO 30006KT 9SM BKN025 BKN070 M03/M08 A2999 RMK AO1 SLP195
METAR CYNL 202100Z AUTO 30005KT 9SM SCT025 BKN070 M03/M08 A2999 RMK AO1 SLP195
METAR CYNL 202000Z AUTO 28008KT 9SM FEW020 BKN070 M03/M09 A2999 RMK AO1 SLP195
METAR CYNL 201900Z AUTO 27005KT 9SM FEW014 BKN068 M03/M07 A2999 RMK AO1 SLP195
METAR CYNL 201800Z AUTO 29006KT 9SM BKN066 M04/M07 A2999 RMK AO1 SLP196
METAR CYNL 201700Z AUTO 27005KT 9SM BKN066 M05/M07 A2999 RMK AO1 SLP196
METAR CYNL 201600Z AUTO 27005KT 9SM FEW011 BKN068 M05/M07 A2999 RMK AO1 SLP196
SPECI CYNL 201546Z AUTO 27004KT 9SM SCT011 BKN068 M05/M07 A2999 RMK AO1 SLP197
SPECI CYNL 201522Z AUTO 25004KT 9SM BKN012 BKN026 OVC068 M05/M07 A2999 RMK AO1 SLP197
SPECI CYNL 201509Z AUTO 27003KT 9SM FEW013 BKN018 OVC026 M05/M07 A2999 RMK AO1 SLP197
SPECI CYNL 201505Z AUTO 27003KT 9SM SCT015 OVC026 M05/M07 A2999 RMK AO1 SLP197
METAR CYNL 201500Z AUTO 26003KT 9SM SCT016 BKN020 OVC027 M05/M07 A2999 RMK AO1 SLP196
SPECI CYNL 201451Z AUTO 27003KT 9SM SCT015 BKN020 OVC027 M06/M07 A2999 RMK AO1 SLP195
SPECI CYNL 201409Z AUTO 29002KT 9SM BKN029 OVC070 M06/M08 A2998 RMK AO1 SLP195
METAR CYNL 201400Z AUTO 30003KT 9SM BKN030 OVC070 M06/M08 A2998 RMK AO1 SLP195
SPECI CYNL 201334Z AUTO 28003KT 9SM SCT018 OVC030 M06/M08 A2998 RMK AO1 SLP194
METAR CYNL 201300Z AUTO 28003KT 9SM BKN018 OVC028 M06/M08 A2999 RMK AO1 SLP195
SPECI CYNL 201219Z AUTO 27004KT 9SM OVC015 M06/M07 A2999 RMK AO1 SLP195
METAR CYNL 201200Z AUTO 27003KT 9SM OVC014 M06/M07 A2998 RMK AO1 SLP194
SPECI CYNL 201147Z AUTO 27004KT 9SM OVC014 M06/M07 A2998 RMK AO1 SLP193
SPECI CYNL 201112Z AUTO 26004KT 9SM BKN017 M06/M07 A2998 RMK AO1 SLP192
SPECI CYNL 201108Z AUTO 27003KT 9SM SCT017 M06/M07 A2998 RMK AO1 SLP192
METAR CYNL 201100Z AUTO 27004KT 9SM BKN017 M06/M07 A2998 RMK AO1 SLP192
SPECI CYNL 201059Z AUTO 26004KT 9SM BKN017 M06/M07 A2998 RMK AO1 SLP191
METAR CYNL 201000Z AUTO 26003KT 9SM OVC052 M06/M07 A2998 RMK AO1 SLP190
METAR CYNL 200900Z AUTO 25003KT 9SM FEW050 M06/M07 A2998 RMK AO1 SLP190
METAR CYNL 200800Z AUTO 24002KT 9SM OVC046 M06/M08 A2998 RMK AO1 SLP190
METAR CYNL 200700Z AUTO 00000KT 9SM BKN037 M06/M07 A2998 RMK AO1 SLP190
SPECI CYNL 200627Z AUTO 25003KT 9SM OVC030 M06/M07 A2998 RMK AO1 SLP190
METAR CYNL 200600Z AUTO 25003KT 9SM FEW013 SCT016 BKN026 M05/M07 A2998 RMK AO1 SLP190
SPECI CYNL 200555Z AUTO 25004KT 9SM SCT014 OVC027 M05/M07 A2998 RMK AO1 SLP190
SPECI CYNL 200540Z AUTO 26003KT 3SM FEW004 SCT007 BKN014 M05/M07 A2998 RMK AO1 SLP190
SPECI CYNL 200536Z AUTO 26003KT 3SM SCT004 OVC015 M05/M07 A2998 RMK AO1 SLP190
SPECI CYNL 200535Z AUTO 26003KT 2 1/2SM SCT004 BKN010 OVC015 M05/M07 A2998 RMK AO1 SLP190
SPECI CYNL 200534Z AUTO 26003KT 1 3/4SM VV015 M05/M07 A2998 RMK AO1 SLP190
SPECI CYNL 200533Z AUTO 26003KT 1 1/2SM VV014 M05/M07 A2998 RMK AO1 SLP190
SPECI CYNL 200529Z AUTO 26003KT 1SM VV010 M05/M07 A2998 RMK AO1 SLP191
SPECI CYNL 200528Z AUTO 26003KT 3/4SM VV009 M05/M07 A2998 RMK AO1 SLP191
SPECI CYNL 200523Z AUTO 26003KT 3/8SM VV005 M06/M07 A2998 RMK AO1 SLP191
SPECI CYNL 200522Z AUTO 26004KT 1/4SM VV004 M06/M07 A2998 RMK AO1 SLP191
SPECI CYNL 200519Z AUTO 26003KT 1/8SM VV004 M06/M07 A2998 RMK AO1 SLP191
SPECI CYNL 200518Z AUTO 26003KT 1/4SM VV004 M06/M07 A2998 RMK AO1 SLP191
SPECI CYNL 200513Z AUTO 27003KT 1/8SM VV004 M06/M07 A2998 RMK AO1 SLP192
SPECI CYNL 200512Z AUTO 27002KT 1/4SM VV004 M06/M07 A2998 RMK AO1 SLP192
SPECI CYNL 200510Z AUTO 27002KT 1/8SM VV005 M06/M07 A2998 RMK AO1 SLP192
SPECI CYNL 200505Z AUTO 27002KT 1/2SM VV007 M06/M08 A2998 RMK AO1 SLP192
SPECI CYNL 200504Z AUTO 00000KT 3/4SM VV007 M06/M08 A2998 RMK AO1 SLP192
SPECI CYNL 200502Z AUTO 00000KT 1 1/4SM VV007 M06/M08 A2998 RMK AO1 SLP192
SPECI CYNL 200501Z AUTO 00000KT 1 3/4SM VV006 M06/M08 A2998 RMK AO1 SLP192
METAR CYNL 200500Z AUTO 00000KT 2 1/2SM VV007 M06/M08 A2998 RMK AO1 SLP192
SPECI CYNL 200454Z AUTO 00000KT 2 1/2SM VV009 M06/M08 A2998 RMK AO1 SLP192
SPECI CYNL 200451Z AUTO 00000KT 3SM VV012 M06/M08 A2998 RMK AO1 SLP192
SPECI CYNL 200450Z AUTO 00000KT 3SM FEW009 BKN048 M06/M09 A2998 RMK AO1 SLP192
SPECI CYNL 200419Z AUTO 00000KT 9SM SCT026 BKN049 M06/M08 A2998 RMK AO1 SLP193
SPECI CYNL 200408Z AUTO 00000KT 9SM FEW022 BKN028 BKN050 M06/M08 A2998 RMK AO1 SLP193
METAR CYNL 200400Z AUTO 00000KT 9SM SCT027 BKN050 M06/M09 A2998 RMK AO1 SLP193
METAR CYNL 200300Z AUTO 00000KT 9SM FEW046 M05/M08 A2998 RMK AO1 SLP193
METAR CYNL 200200Z AUTO 27003KT 9SM BKN047 M05/M09 A2999 RMK AO1 SLP197
METAR CYNL 200100Z AUTO 27003KT 9SM OVC050 M05/M10 A2999 RMK AO1 SLP199
METAR CYNL 200000Z AUTO 00000KT 9SM OVC048 M04/M10 A3000 RMK AO1 SLP199
METAR CYNL 192300Z AUTO 19003KT 9SM OVC046 M04/M11 A3000 RMK AO1 SLP198
METAR CYNL 192200Z AUTO 24004KT 9SM OVC042 M03/M10 A2999 RMK AO1 SLP196
METAR CYNL 192100Z AUTO 25003KT 9SM OVC041 M03/M10 A3000 RMK AO1 SLP199
METAR CYNL 192000Z AUTO 25005KT 9SM OVC040 M03/M10 A3002 RMK AO1 SLP203
METAR CYNL 191900Z AUTO 25006KT 9SM OVC040 M03/M10 A3003 RMK AO1 SLP206
METAR CYNL 191800Z AUTO 24007KT 9SM OVC039 M04/M08 A3003 RMK AO1 SLP208
METAR CYNL 191700Z AUTO 28006KT 9SM OVC039 M04/M07 A3004 RMK AO1 SLP212
METAR CYNL 191600Z AUTO 27005KT 9SM OVC039 M05/M07 A3004 RMK AO1 SLP214
METAR CYNL 191500Z AUTO 27003KT 9SM BKN039 M06/M08 A3004 RMK AO1 SLP215
SPECI CYNL 191427Z AUTO 28004KT 7SM FEW005 SCT039 M07/M08 A3004 RMK AO1 SLP216
METAR CYNL 191400Z AUTO 27003KT 9SM OVC038 M07/M08 A3004 RMK AO1 SLP216
SPECI CYNL 191321Z AUTO 27003KT 9SM FEW006 OVC038 M07/M08 A3005 RMK AO1 SLP219
METAR CYNL 191300Z AUTO 27003KT 6SM BKN038 M07/M08 A3004 RMK AO1 SLP217
METAR CYNL 191200Z AUTO 28004KT 9SM OVC040 M07/M08 A3004 RMK AO1 SLP219
METAR CYNL 191100Z AUTO 30005KT 9SM OVC041 M07/M08 A3005 RMK AO1 SLP217
METAR CYNL 191000Z AUTO 29003KT 9SM OVC041 M06/M08 A3005 RMK AO1 SLP215
METAR CYNL 190900Z AUTO 28005KT 9SM OVC043 M06/M07 A3006 RMK AO1 SLP217
METAR CYNL 190800Z AUTO 27004KT 9SM OVC042 M06/M07 A3006 RMK AO1 SLP214
METAR CYNL 190700Z AUTO 28005KT 9SM OVC044 M06/M07 A3006 RMK AO1 SLP215
METAR CYNL 190600Z AUTO 28004KT 9SM OVC043 M06/M07 A3006 RMK AO1 SLP215
METAR CYNL 190500Z AUTO 28004KT 9SM OVC044 M06/M07 A3006 RMK AO1 SLP219
METAR CYNL 190400Z AUTO 28004KT 9SM OVC046 M06/M07 A3007 RMK AO1 SLP221
METAR CYNL 190300Z AUTO 28004KT 9SM OVC046 M06/M08 A3007 RMK AO1 SLP224
METAR CYNL 190200Z AUTO 27005KT 9SM OVC048 M07/M09 A3007 RMK AO1 SLP226
METAR CYNL 190100Z AUTO 27004KT 9SM FEW049 M08/M10 A3007 RMK AO1 SLP229
METAR CYNL 190000Z AUTO 28004KT 9SM CLR M06/M09 A3008 RMK AO1 SLP227
METAR CYNL 182300Z AUTO 31008KT 9SM FEW022 SCT033 M03/M07 A3008 RMK AO1 SLP223
METAR CYNL 182200Z AUTO 33006KT 9SM SCT035 M03/M10 A3007 RMK AO1 SLP222
METAR CYNL 182100Z AUTO 32009G15KT 9SM CLR M01/M10 A3007 RMK AO1 SLP217
METAR CYNL 182000Z AUTO 35011G16KT 9SM CLR M01/M09 A3007 RMK AO1 SLP217
METAR CYNL 181900Z AUTO 33008KT 9SM CLR M02/M07 A3007 RMK AO1 SLP217
METAR CYNL 181800Z AUTO 33005KT 9SM BKN041 M03/M06 A3007 RMK AO1 SLP220
SPECI CYNL 181703Z AUTO 35008KT 9SM FEW009 M04/M06 A3007 RMK AO1 SLP222
METAR CYNL 181700Z AUTO 35009KT 9SM FEW120 M04/M06 A3007 RMK AO1 SLP222
METAR CYNL 181600Z AUTO 34008KT 9SM FEW005 SCT120 M05/M07 A3007 RMK AO1 SLP222
SPECI CYNL 181530Z AUTO 34008KT 9SM SCT006 BKN030 M06/M07 A3007 RMK AO1 SLP221
METAR CYNL 181500Z AUTO 34006KT 9SM BKN005 OVC007 M06/M07 A3006 RMK AO1 SLP220
METAR CYNL 181400Z AUTO 33009KT 7SM BKN005 OVC008 M06/M07 A3006 RMK AO1 SLP218
SPECI CYNL 181358Z AUTO 32007G15KT 9SM BKN005 OVC008 M06/M07 A3006 RMK AO1 SLP218
SPECI CYNL 181357Z AUTO 32007G15KT 9SM BKN004 OVC008 M06/M07 A3006 RMK AO1 SLP218
SPECI CYNL 181355Z AUTO 32007G15KT 9SM BKN005 OVC008 M06/M07 A3006 RMK AO1 SLP218
SPECI CYNL 181352Z AUTO 33009G15KT 9SM BKN004 OVC008 M06/M07 A3006 RMK AO1 SLP218
SPECI CYNL 181346Z AUTO 33009KT 9SM SCT004 BKN006 BKN008 M06/M07 A3006 RMK AO1 SLP218
SPECI CYNL 181343Z AUTO 33007KT 6SM BKN004 BKN007 OVC010 M06/M07 A3006 RMK AO1 SLP218
SPECI CYNL 181310Z AUTO 34009KT 4SM SCT004 BKN007 OVC009 M06/M07 A3005 RMK AO1 SLP216
SPECI CYNL 181307Z AUTO 33006KT 2 1/2SM SCT004 BKN006 OVC008 M06/M07 A3005 RMK AO1 SLP216
METAR CYNL 181300Z AUTO 34008KT 4SM SCT005 OVC008 M06/M07 A3005 RMK AO1 SLP215
METAR CYNL 181200Z AUTO 34007KT 8SM VV008 M05/M07 A3004 RMK AO1 SLP213
SPECI CYNL 181141Z AUTO 34007KT 5SM VV009 M05/M07 A3004 RMK AO1 SLP211
SPECI CYNL 181128Z AUTO 34009KT 7SM VV012 M05/M07 A3004 RMK AO1 SLP211
SPECI CYNL 181125Z AUTO 34007KT 9SM VV020 M05/M07 A3004 RMK AO1 SLP211
SPECI CYNL 181124Z AUTO 34007KT 8SM FEW008 SCT034 M05/M07 A3004 RMK AO1 SLP211